<?xml version="1.0" encoding="UTF-8"?>
<gpx xmlns="http://www.topografix.com/GPX/1/1" version="1.1" creator="EasyGPS 6.11 using Garmin GPSMAP 78" xmlns:xsi="http://www.w3.org/2001/XMLSchema-instance" xsi:schemaLocation="http://www.topografix.com/GPX/1/1 http://www.topografix.com/GPX/1/1/gpx.xsd http://www.topografix.com/GPX/gpx_style/0/2 http://www.topografix.com/GPX/gpx_style/0/2/gpx_style.xsd http://www.topografix.com/GPX/gpx_overlay/0/3 http://www.topografix.com/GPX/gpx_overlay/0/3/gpx_overlay.xsd http://www.topografix.com/GPX/gpx_modified/0/1 http://www.topografix.com/GPX/gpx_modified/0/1/gpx_modified.xsd">
<metadata>
<name>45km-RTF-RV-Nieder-Weisel–2026V0429</name>
<author>
<link href="https://www.komoot.de">
<text>komoot</text>
<type>text/html</type>
</link>
</author>
<bounds minlat="50.41453100" minlon="8.65068600" maxlat="50.53891600" maxlon="8.77218700"/>
<extensions>
<time xmlns="http://www.topografix.com/GPX/gpx_modified/0/1">2026-04-29T08:31:48.858Z</time>
</extensions>
</metadata>
<wpt lat="50.52854500" lon="8.74881800">
<time>2026-04-29T08:26:38.106Z</time>
<name>Kontrollpunkt 1 Garbenteich</name>
<sym>Flag, Blue</sym>
<type>Blue Flag</type>
<extensions>
<label xmlns="http://www.topografix.com/GPX/gpx_overlay/0/3">
<label_text>Kontrollpunkt 1 Garbenteich</label_text>
</label>
</extensions>
</wpt>
<wpt lat="50.41454000" lon="8.68832900">
<time>2026-04-28T09:45:44.122Z</time>
<name>Ziel</name>
<desc>Alle Strecken</desc>
<sym>Flag, Blue</sym>
<type>Blue Flag</type>
<extensions>
<label xmlns="http://www.topografix.com/GPX/gpx_overlay/0/3">
<label_text>Ziel</label_text>
</label>
</extensions>
</wpt>
<trk>
<name>45km-RTF-RV-Nieder-Weisel–2026V0429</name>
<type>GPS Tracklog</type>
<extensions>
<label xmlns="http://www.topografix.com/GPX/gpx_overlay/0/3">
<label_text>45km-RTF-RV-Nieder-Weisel–2026V0429</label_text>
</label>
<line xmlns="http://www.topografix.com/GPX/gpx_style/0/2">
<color>ff6820</color>
<opacity>1.00</opacity>
<width>0.8330</width>
<pattern>Solid</pattern>
</line>
</extensions>
<trkseg>
<trkpt lat="50.41467200" lon="8.68690200">
<ele>174.127</ele>
<time>2026-04-28T10:14:21.526Z</time>
</trkpt>
<trkpt lat="50.41513400" lon="8.68701100">
<ele>174.127</ele>
<time>2026-04-28T10:14:29.794Z</time>
</trkpt>
<trkpt lat="50.41517800" lon="8.68702100">
<ele>174.127</ele>
<time>2026-04-28T10:14:30.616Z</time>
</trkpt>
<trkpt lat="50.41545800" lon="8.68706200">
<ele>174.127</ele>
<time>2026-04-28T10:14:35.977Z</time>
</trkpt>
<trkpt lat="50.41568000" lon="8.68716000">
<ele>174.306</ele>
<time>2026-04-28T10:14:40.571Z</time>
</trkpt>
<trkpt lat="50.41594300" lon="8.68735300">
<ele>174.722</ele>
<time>2026-04-28T10:14:46.581Z</time>
</trkpt>
<trkpt lat="50.41632200" lon="8.68626900">
<ele>175.853</ele>
<time>2026-04-28T10:15:07.186Z</time>
</trkpt>
<trkpt lat="50.41650400" lon="8.68576600">
<ele>176.382</ele>
<time>2026-04-28T10:15:15.179Z</time>
</trkpt>
<trkpt lat="50.41677300" lon="8.68497200">
<ele>177.125</ele>
<time>2026-04-28T10:15:27.062Z</time>
</trkpt>
<trkpt lat="50.41703400" lon="8.68520000">
<ele>177.484</ele>
<time>2026-04-28T10:15:33.007Z</time>
</trkpt>
<trkpt lat="50.41738400" lon="8.68554600">
<ele>177.983</ele>
<time>2026-04-28T10:15:40.913Z</time>
</trkpt>
<trkpt lat="50.41771100" lon="8.68478100">
<ele>178.690</ele>
<time>2026-04-28T10:15:51.986Z</time>
</trkpt>
<trkpt lat="50.41784100" lon="8.68435900">
<ele>179.085</ele>
<time>2026-04-28T10:15:57.576Z</time>
</trkpt>
<trkpt lat="50.41787100" lon="8.68427300">
<ele>179.175</ele>
<time>2026-04-28T10:15:58.756Z</time>
</trkpt>
<trkpt lat="50.41819500" lon="8.68300900">
<ele>180.430</ele>
<time>2026-04-28T10:16:20.850Z</time>
</trkpt>
<trkpt lat="50.41834600" lon="8.68240700">
<ele>181.025</ele>
<time>2026-04-28T10:16:32.152Z</time>
</trkpt>
<trkpt lat="50.41837100" lon="8.68230900">
<ele>181.122</ele>
<time>2026-04-28T10:16:34.004Z</time>
</trkpt>
<trkpt lat="50.41884300" lon="8.68148100">
<ele>182.222</ele>
<time>2026-04-28T10:16:53.551Z</time>
</trkpt>
<trkpt lat="50.41922800" lon="8.68079600">
<ele>183.160</ele>
<time>2026-04-28T10:17:09.456Z</time>
</trkpt>
<trkpt lat="50.41918500" lon="8.68060000">
<ele>183.373</ele>
<time>2026-04-28T10:17:12.255Z</time>
</trkpt>
<trkpt lat="50.41906500" lon="8.67967300">
<ele>184.344</ele>
<time>2026-04-28T10:17:24.350Z</time>
</trkpt>
<trkpt lat="50.41904600" lon="8.67886000">
<ele>184.909</ele>
<time>2026-04-28T10:17:34.586Z</time>
</trkpt>
<trkpt lat="50.41899000" lon="8.67766600">
<ele>185.726</ele>
<time>2026-04-28T10:17:49.198Z</time>
</trkpt>
<trkpt lat="50.41899400" lon="8.67657400">
<ele>186.441</ele>
<time>2026-04-28T10:18:02.272Z</time>
</trkpt>
<trkpt lat="50.41904000" lon="8.67470300">
<ele>187.495</ele>
<time>2026-04-28T10:18:23.353Z</time>
</trkpt>
<trkpt lat="50.41907200" lon="8.67410500">
<ele>187.833</ele>
<time>2026-04-28T10:18:30.312Z</time>
</trkpt>
<trkpt lat="50.41910300" lon="8.67350600">
<ele>188.245</ele>
<time>2026-04-28T10:18:38.030Z</time>
</trkpt>
<trkpt lat="50.41917000" lon="8.67323600">
<ele>188.450</ele>
<time>2026-04-28T10:18:41.793Z</time>
</trkpt>
<trkpt lat="50.41945400" lon="8.67260400">
<ele>188.999</ele>
<time>2026-04-28T10:18:51.125Z</time>
</trkpt>
<trkpt lat="50.41950100" lon="8.67232100">
<ele>189.206</ele>
<time>2026-04-28T10:18:54.660Z</time>
</trkpt>
<trkpt lat="50.41948700" lon="8.67212100">
<ele>189.349</ele>
<time>2026-04-28T10:18:57.142Z</time>
</trkpt>
<trkpt lat="50.41946500" lon="8.67186500">
<ele>189.532</ele>
<time>2026-04-28T10:19:00.349Z</time>
</trkpt>
<trkpt lat="50.41945300" lon="8.67168600">
<ele>189.660</ele>
<time>2026-04-28T10:19:02.608Z</time>
</trkpt>
<trkpt lat="50.41946000" lon="8.67143700">
<ele>189.836</ele>
<time>2026-04-28T10:19:05.751Z</time>
</trkpt>
<trkpt lat="50.41951500" lon="8.67113900">
<ele>190.141</ele>
<time>2026-04-28T10:19:09.634Z</time>
</trkpt>
<trkpt lat="50.41981600" lon="8.67007100">
<ele>191.390</ele>
<time>2026-04-28T10:19:23.809Z</time>
</trkpt>
<trkpt lat="50.42145700" lon="8.66466100">
<ele>198.320</ele>
<time>2026-04-28T10:20:48.839Z</time>
</trkpt>
<trkpt lat="50.42209100" lon="8.66252800">
<ele>202.060</ele>
<time>2026-04-28T10:21:26.782Z</time>
</trkpt>
<trkpt lat="50.42274400" lon="8.66033500">
<ele>206.752</ele>
<time>2026-04-28T10:22:07.571Z</time>
</trkpt>
<trkpt lat="50.42315400" lon="8.65899000">
<ele>210.075</ele>
<time>2026-04-28T10:22:36.341Z</time>
</trkpt>
<trkpt lat="50.42336100" lon="8.65832600">
<ele>211.492</ele>
<time>2026-04-28T10:22:51.007Z</time>
</trkpt>
<trkpt lat="50.42355300" lon="8.65718600">
<ele>213.158</ele>
<time>2026-04-28T10:23:11.234Z</time>
</trkpt>
<trkpt lat="50.42363500" lon="8.65656000">
<ele>214.062</ele>
<time>2026-04-28T10:23:20.220Z</time>
</trkpt>
<trkpt lat="50.42375800" lon="8.65679300">
<ele>214.490</ele>
<time>2026-04-28T10:23:24.050Z</time>
</trkpt>
<trkpt lat="50.42384400" lon="8.65695700">
<ele>214.790</ele>
<time>2026-04-28T10:23:26.625Z</time>
</trkpt>
<trkpt lat="50.42532000" lon="8.65932400">
<ele>214.963</ele>
<time>2026-04-28T10:23:57.368Z</time>
</trkpt>
<trkpt lat="50.42529800" lon="8.65949300">
<ele>214.885</ele>
<time>2026-04-28T10:23:59.336Z</time>
</trkpt>
<trkpt lat="50.42551900" lon="8.65964200">
<ele>214.716</ele>
<time>2026-04-28T10:24:02.373Z</time>
</trkpt>
<trkpt lat="50.42665100" lon="8.66156100">
<ele>213.681</ele>
<time>2026-04-28T10:24:23.042Z</time>
</trkpt>
<trkpt lat="50.42668600" lon="8.66168700">
<ele>213.650</ele>
<time>2026-04-28T10:24:24.306Z</time>
</trkpt>
<trkpt lat="50.42669000" lon="8.66200100">
<ele>213.579</ele>
<time>2026-04-28T10:24:27.071Z</time>
</trkpt>
<trkpt lat="50.42678200" lon="8.66209000">
<ele>213.541</ele>
<time>2026-04-28T10:24:28.693Z</time>
</trkpt>
<trkpt lat="50.42682800" lon="8.66213200">
<ele>213.522</ele>
<time>2026-04-28T10:24:29.422Z</time>
</trkpt>
<trkpt lat="50.42690100" lon="8.66220900">
<ele>213.491</ele>
<time>2026-04-28T10:24:30.813Z</time>
</trkpt>
<trkpt lat="50.42695000" lon="8.66215100">
<ele>213.469</ele>
<time>2026-04-28T10:24:31.675Z</time>
</trkpt>
<trkpt lat="50.42704000" lon="8.66214400">
<ele>213.437</ele>
<time>2026-04-28T10:24:33.104Z</time>
</trkpt>
<trkpt lat="50.42754800" lon="8.66293500">
<ele>213.184</ele>
<time>2026-04-28T10:24:43.465Z</time>
</trkpt>
<trkpt lat="50.42766600" lon="8.66306000">
<ele>213.106</ele>
<time>2026-04-28T10:24:45.428Z</time>
</trkpt>
<trkpt lat="50.42774600" lon="8.66305000">
<ele>213.062</ele>
<time>2026-04-28T10:24:46.507Z</time>
</trkpt>
<trkpt lat="50.42801800" lon="8.66342900">
<ele>212.862</ele>
<time>2026-04-28T10:24:52.953Z</time>
</trkpt>
<trkpt lat="50.42820900" lon="8.66362700">
<ele>212.736</ele>
<time>2026-04-28T10:24:56.945Z</time>
</trkpt>
<trkpt lat="50.42895500" lon="8.66412900">
<ele>212.291</ele>
<time>2026-04-28T10:25:11.426Z</time>
</trkpt>
<trkpt lat="50.42904800" lon="8.66418200">
<ele>212.237</ele>
<time>2026-04-28T10:25:13.253Z</time>
</trkpt>
<trkpt lat="50.42939400" lon="8.66426700">
<ele>212.384</ele>
<time>2026-04-28T10:25:18.301Z</time>
</trkpt>
<trkpt lat="50.42965300" lon="8.66422500">
<ele>212.557</ele>
<time>2026-04-28T10:25:22.524Z</time>
</trkpt>
<trkpt lat="50.42985700" lon="8.66417500">
<ele>212.694</ele>
<time>2026-04-28T10:25:26.037Z</time>
</trkpt>
<trkpt lat="50.43001900" lon="8.66417600">
<ele>212.801</ele>
<time>2026-04-28T10:25:28.948Z</time>
</trkpt>
<trkpt lat="50.43047800" lon="8.66430100">
<ele>213.110</ele>
<time>2026-04-28T10:25:37.925Z</time>
</trkpt>
<trkpt lat="50.43077900" lon="8.66437700">
<ele>213.312</ele>
<time>2026-04-28T10:25:43.986Z</time>
</trkpt>
<trkpt lat="50.43112200" lon="8.66435200">
<ele>213.552</ele>
<time>2026-04-28T10:25:50.851Z</time>
</trkpt>
<trkpt lat="50.43120400" lon="8.66432500">
<ele>213.612</ele>
<time>2026-04-28T10:25:52.500Z</time>
</trkpt>
<trkpt lat="50.43156100" lon="8.66430400">
<ele>213.867</ele>
<time>2026-04-28T10:25:59.530Z</time>
</trkpt>
<trkpt lat="50.43207800" lon="8.66440700">
<ele>214.240</ele>
<time>2026-04-28T10:26:09.090Z</time>
</trkpt>
<trkpt lat="50.43250600" lon="8.66449300">
<ele>214.549</ele>
<time>2026-04-28T10:26:16.095Z</time>
</trkpt>
<trkpt lat="50.43261300" lon="8.66451400">
<ele>214.626</ele>
<time>2026-04-28T10:26:17.718Z</time>
</trkpt>
<trkpt lat="50.43335200" lon="8.66462600">
<ele>214.606</ele>
<time>2026-04-28T10:26:27.971Z</time>
</trkpt>
<trkpt lat="50.43362200" lon="8.66466500">
<ele>214.577</ele>
<time>2026-04-28T10:26:31.573Z</time>
</trkpt>
<trkpt lat="50.43472400" lon="8.66485800">
<ele>214.585</ele>
<time>2026-04-28T10:26:47.504Z</time>
</trkpt>
<trkpt lat="50.43474500" lon="8.66497100">
<ele>214.615</ele>
<time>2026-04-28T10:26:48.755Z</time>
</trkpt>
<trkpt lat="50.43481300" lon="8.66502100">
<ele>214.645</ele>
<time>2026-04-28T10:26:50.007Z</time>
</trkpt>
<trkpt lat="50.43486600" lon="8.66499500">
<ele>214.667</ele>
<time>2026-04-28T10:26:50.952Z</time>
</trkpt>
<trkpt lat="50.43490600" lon="8.66488400">
<ele>214.699</ele>
<time>2026-04-28T10:26:52.344Z</time>
</trkpt>
<trkpt lat="50.43518700" lon="8.66491700">
<ele>214.811</ele>
<time>2026-04-28T10:26:57.313Z</time>
</trkpt>
<trkpt lat="50.43532900" lon="8.66494000">
<ele>214.868</ele>
<time>2026-04-28T10:26:59.900Z</time>
</trkpt>
<trkpt lat="50.43549000" lon="8.66496500">
<ele>214.932</ele>
<time>2026-04-28T10:27:02.891Z</time>
</trkpt>
<trkpt lat="50.43651400" lon="8.66512800">
<ele>214.828</ele>
<time>2026-04-28T10:27:20.465Z</time>
</trkpt>
<trkpt lat="50.43725200" lon="8.66523700">
<ele>214.052</ele>
<time>2026-04-28T10:27:29.550Z</time>
</trkpt>
<trkpt lat="50.43752500" lon="8.66547900">
<ele>213.724</ele>
<time>2026-04-28T10:27:32.969Z</time>
</trkpt>
<trkpt lat="50.43760500" lon="8.66558900">
<ele>213.613</ele>
<time>2026-04-28T10:27:34.103Z</time>
</trkpt>
<trkpt lat="50.43770200" lon="8.66584300">
<ele>213.415</ele>
<time>2026-04-28T10:27:36.148Z</time>
</trkpt>
<trkpt lat="50.43775800" lon="8.66614400">
<ele>213.152</ele>
<time>2026-04-28T10:27:38.307Z</time>
</trkpt>
<trkpt lat="50.43778200" lon="8.66626200">
<ele>213.030</ele>
<time>2026-04-28T10:27:39.145Z</time>
</trkpt>
<trkpt lat="50.43780300" lon="8.66636700">
<ele>212.920</ele>
<time>2026-04-28T10:27:39.913Z</time>
</trkpt>
<trkpt lat="50.43782600" lon="8.66648700">
<ele>212.796</ele>
<time>2026-04-28T10:27:40.770Z</time>
</trkpt>
<trkpt lat="50.43790100" lon="8.66644600">
<ele>212.673</ele>
<time>2026-04-28T10:27:42.009Z</time>
</trkpt>
<trkpt lat="50.43803800" lon="8.66635600">
<ele>212.442</ele>
<time>2026-04-28T10:27:44.317Z</time>
</trkpt>
<trkpt lat="50.43983000" lon="8.66613500">
<ele>209.879</ele>
<time>2026-04-28T10:28:14.571Z</time>
</trkpt>
<trkpt lat="50.44036800" lon="8.66599900">
<ele>209.258</ele>
<time>2026-04-28T10:28:23.871Z</time>
</trkpt>
<trkpt lat="50.44126800" lon="8.66570500">
<ele>208.641</ele>
<time>2026-04-28T10:28:39.646Z</time>
</trkpt>
<trkpt lat="50.44134800" lon="8.66570200">
<ele>208.701</ele>
<time>2026-04-28T10:28:41.119Z</time>
</trkpt>
<trkpt lat="50.44141200" lon="8.66565600">
<ele>208.753</ele>
<time>2026-04-28T10:28:42.468Z</time>
</trkpt>
<trkpt lat="50.44147700" lon="8.66561600">
<ele>208.806</ele>
<time>2026-04-28T10:28:43.790Z</time>
</trkpt>
<trkpt lat="50.44156600" lon="8.66556200">
<ele>208.877</ele>
<time>2026-04-28T10:28:45.661Z</time>
</trkpt>
<trkpt lat="50.44160400" lon="8.66547400">
<ele>208.928</ele>
<time>2026-04-28T10:28:46.998Z</time>
</trkpt>
<trkpt lat="50.44193900" lon="8.66526800">
<ele>209.198</ele>
<time>2026-04-28T10:28:54.675Z</time>
</trkpt>
<trkpt lat="50.44291600" lon="8.66455400">
<ele>210.588</ele>
<time>2026-04-28T10:29:24.357Z</time>
</trkpt>
<trkpt lat="50.44467900" lon="8.66315400">
<ele>216.719</ele>
<time>2026-04-28T10:30:31.246Z</time>
</trkpt>
<trkpt lat="50.44483900" lon="8.66307600">
<ele>217.252</ele>
<time>2026-04-28T10:30:36.980Z</time>
</trkpt>
<trkpt lat="50.44505000" lon="8.66291500">
<ele>217.999</ele>
<time>2026-04-28T10:30:44.882Z</time>
</trkpt>
<trkpt lat="50.44510600" lon="8.66287200">
<ele>218.197</ele>
<time>2026-04-28T10:30:46.974Z</time>
</trkpt>
<trkpt lat="50.44526300" lon="8.66284300">
<ele>218.700</ele>
<time>2026-04-28T10:30:52.273Z</time>
</trkpt>
<trkpt lat="50.44527700" lon="8.66277000">
<ele>218.855</ele>
<time>2026-04-28T10:30:53.872Z</time>
</trkpt>
<trkpt lat="50.44528600" lon="8.66269600">
<ele>219.008</ele>
<time>2026-04-28T10:30:55.471Z</time>
</trkpt>
<trkpt lat="50.44532300" lon="8.66266700">
<ele>219.139</ele>
<time>2026-04-28T10:30:56.865Z</time>
</trkpt>
<trkpt lat="50.44539200" lon="8.66262600">
<ele>219.374</ele>
<time>2026-04-28T10:30:59.288Z</time>
</trkpt>
<trkpt lat="50.44550600" lon="8.66247100">
<ele>219.854</ele>
<time>2026-04-28T10:31:04.248Z</time>
</trkpt>
<trkpt lat="50.44725500" lon="8.66084800">
<ele>224.945</ele>
<time>2026-04-28T10:32:06.740Z</time>
</trkpt>
<trkpt lat="50.44838600" lon="8.65990600">
<ele>226.661</ele>
<time>2026-04-28T10:32:36.421Z</time>
</trkpt>
<trkpt lat="50.44891000" lon="8.65952900">
<ele>227.354</ele>
<time>2026-04-28T10:32:50.119Z</time>
</trkpt>
<trkpt lat="50.44913100" lon="8.65939500">
<ele>227.883</ele>
<time>2026-04-28T10:32:56.292Z</time>
</trkpt>
<trkpt lat="50.45150900" lon="8.65782800">
<ele>236.062</ele>
<time>2026-04-28T10:34:08.538Z</time>
</trkpt>
<trkpt lat="50.45214800" lon="8.65755700">
<ele>238.432</ele>
<time>2026-04-28T10:34:29.988Z</time>
</trkpt>
<trkpt lat="50.45219100" lon="8.65749700">
<ele>238.638</ele>
<time>2026-04-28T10:34:31.779Z</time>
</trkpt>
<trkpt lat="50.45231200" lon="8.65748400">
<ele>239.072</ele>
<time>2026-04-28T10:34:35.438Z</time>
</trkpt>
<trkpt lat="50.45267500" lon="8.65734200">
<ele>239.428</ele>
<time>2026-04-28T10:34:45.874Z</time>
</trkpt>
<trkpt lat="50.45291600" lon="8.65719600">
<ele>239.598</ele>
<time>2026-04-28T10:34:52.057Z</time>
</trkpt>
<trkpt lat="50.45308400" lon="8.65693600">
<ele>239.754</ele>
<time>2026-04-28T10:34:56.823Z</time>
</trkpt>
<trkpt lat="50.45327800" lon="8.65650700">
<ele>239.975</ele>
<time>2026-04-28T10:35:02.243Z</time>
</trkpt>
<trkpt lat="50.45346400" lon="8.65641400">
<ele>240.104</ele>
<time>2026-04-28T10:35:04.783Z</time>
</trkpt>
<trkpt lat="50.45456500" lon="8.65586200">
<ele>239.250</ele>
<time>2026-04-28T10:35:17.218Z</time>
</trkpt>
<trkpt lat="50.45461300" lon="8.65581500">
<ele>239.160</ele>
<time>2026-04-28T10:35:17.813Z</time>
</trkpt>
<trkpt lat="50.45509800" lon="8.65483000">
<ele>237.899</ele>
<time>2026-04-28T10:35:26.589Z</time>
</trkpt>
<trkpt lat="50.45531700" lon="8.65439900">
<ele>237.743</ele>
<time>2026-04-28T10:35:31.262Z</time>
</trkpt>
<trkpt lat="50.45565200" lon="8.65381300">
<ele>238.630</ele>
<time>2026-04-28T10:35:40.075Z</time>
</trkpt>
<trkpt lat="50.45664600" lon="8.65210500">
<ele>241.199</ele>
<time>2026-04-28T10:36:18.599Z</time>
</trkpt>
<trkpt lat="50.45707900" lon="8.65132200">
<ele>242.283</ele>
<time>2026-04-28T10:36:34.928Z</time>
</trkpt>
<trkpt lat="50.45710400" lon="8.65118400">
<ele>242.433</ele>
<time>2026-04-28T10:36:36.987Z</time>
</trkpt>
<trkpt lat="50.45718600" lon="8.65118700">
<ele>242.568</ele>
<time>2026-04-28T10:36:38.681Z</time>
</trkpt>
<trkpt lat="50.45722800" lon="8.65119200">
<ele>242.637</ele>
<time>2026-04-28T10:36:39.575Z</time>
</trkpt>
<trkpt lat="50.45735800" lon="8.65120700">
<ele>242.851</ele>
<time>2026-04-28T10:36:42.171Z</time>
</trkpt>
<trkpt lat="50.45743300" lon="8.65121500">
<ele>242.974</ele>
<time>2026-04-28T10:36:43.632Z</time>
</trkpt>
<trkpt lat="50.45797700" lon="8.65124500">
<ele>243.516</ele>
<time>2026-04-28T10:36:52.420Z</time>
</trkpt>
<trkpt lat="50.45876700" lon="8.65113500">
<ele>242.550</ele>
<time>2026-04-28T10:37:02.033Z</time>
</trkpt>
<trkpt lat="50.45939800" lon="8.65093700">
<ele>241.766</ele>
<time>2026-04-28T10:37:09.187Z</time>
</trkpt>
<trkpt lat="50.45990600" lon="8.65072100">
<ele>241.033</ele>
<time>2026-04-28T10:37:14.979Z</time>
</trkpt>
<trkpt lat="50.45999100" lon="8.65071400">
<ele>240.903</ele>
<time>2026-04-28T10:37:15.935Z</time>
</trkpt>
<trkpt lat="50.46007800" lon="8.65080200">
<ele>240.743</ele>
<time>2026-04-28T10:37:17.076Z</time>
</trkpt>
<trkpt lat="50.46032400" lon="8.65149700">
<ele>239.965</ele>
<time>2026-04-28T10:37:22.686Z</time>
</trkpt>
<trkpt lat="50.46038200" lon="8.65159100">
<ele>239.837</ele>
<time>2026-04-28T10:37:23.627Z</time>
</trkpt>
<trkpt lat="50.46044500" lon="8.65159800">
<ele>239.740</ele>
<time>2026-04-28T10:37:24.376Z</time>
</trkpt>
<trkpt lat="50.46073000" lon="8.65145300">
<ele>239.279</ele>
<time>2026-04-28T10:37:27.990Z</time>
</trkpt>
<trkpt lat="50.46114800" lon="8.65112500">
<ele>238.611</ele>
<time>2026-04-28T10:37:33.713Z</time>
</trkpt>
<trkpt lat="50.46154000" lon="8.65072100">
<ele>238.133</ele>
<time>2026-04-28T10:37:39.444Z</time>
</trkpt>
<trkpt lat="50.46163500" lon="8.65068600">
<ele>238.034</ele>
<time>2026-04-28T10:37:40.627Z</time>
</trkpt>
<trkpt lat="50.46174600" lon="8.65069400">
<ele>237.921</ele>
<time>2026-04-28T10:37:41.984Z</time>
</trkpt>
<trkpt lat="50.46224900" lon="8.65113100">
<ele>237.335</ele>
<time>2026-04-28T10:37:49.173Z</time>
</trkpt>
<trkpt lat="50.46262600" lon="8.65141200">
<ele>236.910</ele>
<time>2026-04-28T10:37:54.155Z</time>
</trkpt>
<trkpt lat="50.46292200" lon="8.65157400">
<ele>236.666</ele>
<time>2026-04-28T10:37:57.822Z</time>
</trkpt>
<trkpt lat="50.46369100" lon="8.65173400">
<ele>236.082</ele>
<time>2026-04-28T10:38:07.530Z</time>
</trkpt>
<trkpt lat="50.46373700" lon="8.65174200">
<ele>236.047</ele>
<time>2026-04-28T10:38:08.137Z</time>
</trkpt>
<trkpt lat="50.46451600" lon="8.65189000">
<ele>235.496</ele>
<time>2026-04-28T10:38:18.554Z</time>
</trkpt>
<trkpt lat="50.46473800" lon="8.65192600">
<ele>235.429</ele>
<time>2026-04-28T10:38:21.662Z</time>
</trkpt>
<trkpt lat="50.46477000" lon="8.65193200">
<ele>235.419</ele>
<time>2026-04-28T10:38:22.112Z</time>
</trkpt>
<trkpt lat="50.46513900" lon="8.65199700">
<ele>235.307</ele>
<time>2026-04-28T10:38:27.390Z</time>
</trkpt>
<trkpt lat="50.46604600" lon="8.65216100">
<ele>235.032</ele>
<time>2026-04-28T10:38:39.616Z</time>
</trkpt>
<trkpt lat="50.46682600" lon="8.65230800">
<ele>235.349</ele>
<time>2026-04-28T10:38:51.374Z</time>
</trkpt>
<trkpt lat="50.46691300" lon="8.65232400">
<ele>235.401</ele>
<time>2026-04-28T10:38:52.872Z</time>
</trkpt>
<trkpt lat="50.46699800" lon="8.65233900">
<ele>235.452</ele>
<time>2026-04-28T10:38:54.327Z</time>
</trkpt>
<trkpt lat="50.46712800" lon="8.65236100">
<ele>235.531</ele>
<time>2026-04-28T10:38:56.613Z</time>
</trkpt>
<trkpt lat="50.46771300" lon="8.65246200">
<ele>235.882</ele>
<time>2026-04-28T10:39:07.762Z</time>
</trkpt>
<trkpt lat="50.46774200" lon="8.65246800">
<ele>235.900</ele>
<time>2026-04-28T10:39:08.346Z</time>
</trkpt>
<trkpt lat="50.46786000" lon="8.65249300">
<ele>235.971</ele>
<time>2026-04-28T10:39:10.813Z</time>
</trkpt>
<trkpt lat="50.46841700" lon="8.65258900">
<ele>236.073</ele>
<time>2026-04-28T10:39:21.846Z</time>
</trkpt>
<trkpt lat="50.46891900" lon="8.65267700">
<ele>236.094</ele>
<time>2026-04-28T10:39:30.601Z</time>
</trkpt>
<trkpt lat="50.46906000" lon="8.65270300">
<ele>236.100</ele>
<time>2026-04-28T10:39:32.698Z</time>
</trkpt>
<trkpt lat="50.46949900" lon="8.65298100">
<ele>236.119</ele>
<time>2026-04-28T10:39:38.856Z</time>
</trkpt>
<trkpt lat="50.46986100" lon="8.65312300">
<ele>235.923</ele>
<time>2026-04-28T10:39:43.244Z</time>
</trkpt>
<trkpt lat="50.47044000" lon="8.65333900">
<ele>234.834</ele>
<time>2026-04-28T10:39:49.848Z</time>
</trkpt>
<trkpt lat="50.47070500" lon="8.65344600">
<ele>234.333</ele>
<time>2026-04-28T10:39:52.855Z</time>
</trkpt>
<trkpt lat="50.47117400" lon="8.65360100">
<ele>233.456</ele>
<time>2026-04-28T10:39:58.118Z</time>
</trkpt>
<trkpt lat="50.47196600" lon="8.65364200">
<ele>232.237</ele>
<time>2026-04-28T10:40:06.687Z</time>
</trkpt>
<trkpt lat="50.47226600" lon="8.65360600">
<ele>231.839</ele>
<time>2026-04-28T10:40:10.109Z</time>
</trkpt>
<trkpt lat="50.47231000" lon="8.65363000">
<ele>231.778</ele>
<time>2026-04-28T10:40:10.655Z</time>
</trkpt>
<trkpt lat="50.47241500" lon="8.65391700">
<ele>231.499</ele>
<time>2026-04-28T10:40:13.221Z</time>
</trkpt>
<trkpt lat="50.47253800" lon="8.65428700">
<ele>231.148</ele>
<time>2026-04-28T10:40:16.521Z</time>
</trkpt>
<trkpt lat="50.47263600" lon="8.65445500">
<ele>230.956</ele>
<time>2026-04-28T10:40:18.371Z</time>
</trkpt>
<trkpt lat="50.47291800" lon="8.65461100">
<ele>230.561</ele>
<time>2026-04-28T10:40:22.275Z</time>
</trkpt>
<trkpt lat="50.47343700" lon="8.65489800">
<ele>229.919</ele>
<time>2026-04-28T10:40:29.267Z</time>
</trkpt>
<trkpt lat="50.47403800" lon="8.65519500">
<ele>229.200</ele>
<time>2026-04-28T10:40:37.805Z</time>
</trkpt>
<trkpt lat="50.47445800" lon="8.65529600">
<ele>228.715</ele>
<time>2026-04-28T10:40:42.636Z</time>
</trkpt>
<trkpt lat="50.47444900" lon="8.65543700">
<ele>228.612</ele>
<time>2026-04-28T10:40:43.618Z</time>
</trkpt>
<trkpt lat="50.47450900" lon="8.65546100">
<ele>228.541</ele>
<time>2026-04-28T10:40:44.274Z</time>
</trkpt>
<trkpt lat="50.47464800" lon="8.65551700">
<ele>228.347</ele>
<time>2026-04-28T10:40:45.801Z</time>
</trkpt>
<trkpt lat="50.47579500" lon="8.65581200">
<ele>225.644</ele>
<time>2026-04-28T10:40:57.952Z</time>
</trkpt>
<trkpt lat="50.47671600" lon="8.65612300">
<ele>224.051</ele>
<time>2026-04-28T10:41:08.203Z</time>
</trkpt>
<trkpt lat="50.47725200" lon="8.65628700">
<ele>223.764</ele>
<time>2026-04-28T10:41:14.884Z</time>
</trkpt>
<trkpt lat="50.47762400" lon="8.65627500">
<ele>223.569</ele>
<time>2026-04-28T10:41:20.118Z</time>
</trkpt>
<trkpt lat="50.47805900" lon="8.65619300">
<ele>223.339</ele>
<time>2026-04-28T10:41:27.843Z</time>
</trkpt>
<trkpt lat="50.47852100" lon="8.65631800">
<ele>223.352</ele>
<time>2026-04-28T10:41:36.971Z</time>
</trkpt>
<trkpt lat="50.47871400" lon="8.65640100">
<ele>223.392</ele>
<time>2026-04-28T10:41:40.537Z</time>
</trkpt>
<trkpt lat="50.47880200" lon="8.65647500">
<ele>223.412</ele>
<time>2026-04-28T10:41:42.182Z</time>
</trkpt>
<trkpt lat="50.47946600" lon="8.65682500">
<ele>223.551</ele>
<time>2026-04-28T10:41:52.760Z</time>
</trkpt>
<trkpt lat="50.48023000" lon="8.65706600">
<ele>223.438</ele>
<time>2026-04-28T10:42:03.207Z</time>
</trkpt>
<trkpt lat="50.48145700" lon="8.65733400">
<ele>222.708</ele>
<time>2026-04-28T10:42:19.629Z</time>
</trkpt>
<trkpt lat="50.48201900" lon="8.65736200">
<ele>221.925</ele>
<time>2026-04-28T10:42:26.706Z</time>
</trkpt>
<trkpt lat="50.48385500" lon="8.65726600">
<ele>218.173</ele>
<time>2026-04-28T10:42:46.486Z</time>
</trkpt>
<trkpt lat="50.48586900" lon="8.65706800">
<ele>213.922</ele>
<time>2026-04-28T10:43:07.540Z</time>
</trkpt>
<trkpt lat="50.48812100" lon="8.65704400">
<ele>212.736</ele>
<time>2026-04-28T10:43:39.196Z</time>
</trkpt>
<trkpt lat="50.48859400" lon="8.65704200">
<ele>212.782</ele>
<time>2026-04-28T10:43:47.510Z</time>
</trkpt>
<trkpt lat="50.49015300" lon="8.65699200">
<ele>212.874</ele>
<time>2026-04-28T10:44:13.147Z</time>
</trkpt>
<trkpt lat="50.49165200" lon="8.65694700">
<ele>211.584</ele>
<time>2026-04-28T10:44:31.780Z</time>
</trkpt>
<trkpt lat="50.49185100" lon="8.65701400">
<ele>211.312</ele>
<time>2026-04-28T10:44:34.065Z</time>
</trkpt>
<trkpt lat="50.49204000" lon="8.65709100">
<ele>211.051</ele>
<time>2026-04-28T10:44:36.230Z</time>
</trkpt>
<trkpt lat="50.49213200" lon="8.65712900">
<ele>210.924</ele>
<time>2026-04-28T10:44:37.290Z</time>
</trkpt>
<trkpt lat="50.49250700" lon="8.65727700">
<ele>210.302</ele>
<time>2026-04-28T10:44:41.599Z</time>
</trkpt>
<trkpt lat="50.49263700" lon="8.65719800">
<ele>209.900</ele>
<time>2026-04-28T10:44:43.144Z</time>
</trkpt>
<trkpt lat="50.49274600" lon="8.65736900">
<ele>209.457</ele>
<time>2026-04-28T10:44:44.815Z</time>
</trkpt>
<trkpt lat="50.49288700" lon="8.65744500">
<ele>209.027</ele>
<time>2026-04-28T10:44:46.405Z</time>
</trkpt>
<trkpt lat="50.49294000" lon="8.65750700">
<ele>208.837</ele>
<time>2026-04-28T10:44:47.102Z</time>
</trkpt>
<trkpt lat="50.49295900" lon="8.65765800">
<ele>208.555</ele>
<time>2026-04-28T10:44:48.139Z</time>
</trkpt>
<trkpt lat="50.49293700" lon="8.65776800">
<ele>208.343</ele>
<time>2026-04-28T10:44:48.915Z</time>
</trkpt>
<trkpt lat="50.49287700" lon="8.65807000">
<ele>207.764</ele>
<time>2026-04-28T10:44:51.023Z</time>
</trkpt>
<trkpt lat="50.49282100" lon="8.65845700">
<ele>207.036</ele>
<time>2026-04-28T10:44:53.646Z</time>
</trkpt>
<trkpt lat="50.49273400" lon="8.65890300">
<ele>206.181</ele>
<time>2026-04-28T10:44:56.634Z</time>
</trkpt>
<trkpt lat="50.49252800" lon="8.66000500">
<ele>203.889</ele>
<time>2026-04-28T10:45:03.721Z</time>
</trkpt>
<trkpt lat="50.49246600" lon="8.66033100">
<ele>203.172</ele>
<time>2026-04-28T10:45:05.788Z</time>
</trkpt>
<trkpt lat="50.49245300" lon="8.66040400">
<ele>203.012</ele>
<time>2026-04-28T10:45:06.253Z</time>
</trkpt>
<trkpt lat="50.49244200" lon="8.66045900">
<ele>202.890</ele>
<time>2026-04-28T10:45:06.608Z</time>
</trkpt>
<trkpt lat="50.49231100" lon="8.66113800">
<ele>201.394</ele>
<time>2026-04-28T10:45:11.039Z</time>
</trkpt>
<trkpt lat="50.49212000" lon="8.66205900">
<ele>199.356</ele>
<time>2026-04-28T10:45:17.530Z</time>
</trkpt>
<trkpt lat="50.49195000" lon="8.66253500">
<ele>199.302</ele>
<time>2026-04-28T10:45:21.701Z</time>
</trkpt>
<trkpt lat="50.49190600" lon="8.66271400">
<ele>199.283</ele>
<time>2026-04-28T10:45:23.338Z</time>
</trkpt>
<trkpt lat="50.49190800" lon="8.66283300">
<ele>199.271</ele>
<time>2026-04-28T10:45:24.450Z</time>
</trkpt>
<trkpt lat="50.49195900" lon="8.66292500">
<ele>199.259</ele>
<time>2026-04-28T10:45:25.612Z</time>
</trkpt>
<trkpt lat="50.49216700" lon="8.66303700">
<ele>199.225</ele>
<time>2026-04-28T10:45:29.012Z</time>
</trkpt>
<trkpt lat="50.49246400" lon="8.66310400">
<ele>199.178</ele>
<time>2026-04-28T10:45:33.955Z</time>
</trkpt>
<trkpt lat="50.49315800" lon="8.66320100">
<ele>199.096</ele>
<time>2026-04-28T10:45:45.920Z</time>
</trkpt>
<trkpt lat="50.49340700" lon="8.66331300">
<ele>199.219</ele>
<time>2026-04-28T10:45:50.288Z</time>
</trkpt>
<trkpt lat="50.49365400" lon="8.66350200">
<ele>199.351</ele>
<time>2026-04-28T10:45:55.216Z</time>
</trkpt>
<trkpt lat="50.49416700" lon="8.66413900">
<ele>199.664</ele>
<time>2026-04-28T10:46:07.345Z</time>
</trkpt>
<trkpt lat="50.49445700" lon="8.66448100">
<ele>199.837</ele>
<time>2026-04-28T10:46:13.007Z</time>
</trkpt>
<trkpt lat="50.49467300" lon="8.66493900">
<ele>199.876</ele>
<time>2026-04-28T10:46:17.836Z</time>
</trkpt>
<trkpt lat="50.49488600" lon="8.66546500">
<ele>199.726</ele>
<time>2026-04-28T10:46:23.663Z</time>
</trkpt>
<trkpt lat="50.49500800" lon="8.66575500">
<ele>199.642</ele>
<time>2026-04-28T10:46:26.808Z</time>
</trkpt>
<trkpt lat="50.49516300" lon="8.66607700">
<ele>199.544</ele>
<time>2026-04-28T10:46:29.979Z</time>
</trkpt>
<trkpt lat="50.49539100" lon="8.66648200">
<ele>199.413</ele>
<time>2026-04-28T10:46:34.164Z</time>
</trkpt>
<trkpt lat="50.49541500" lon="8.66652400">
<ele>199.400</ele>
<time>2026-04-28T10:46:34.604Z</time>
</trkpt>
<trkpt lat="50.49547200" lon="8.66657900">
<ele>199.374</ele>
<time>2026-04-28T10:46:35.392Z</time>
</trkpt>
<trkpt lat="50.49549900" lon="8.66660500">
<ele>199.362</ele>
<time>2026-04-28T10:46:35.836Z</time>
</trkpt>
<trkpt lat="50.49608000" lon="8.66663700">
<ele>199.656</ele>
<time>2026-04-28T10:46:43.927Z</time>
</trkpt>
<trkpt lat="50.49667900" lon="8.66669800">
<ele>200.485</ele>
<time>2026-04-28T10:46:54.911Z</time>
</trkpt>
<trkpt lat="50.49668500" lon="8.66684000">
<ele>200.610</ele>
<time>2026-04-28T10:46:56.744Z</time>
</trkpt>
<trkpt lat="50.49670000" lon="8.66726900">
<ele>200.988</ele>
<time>2026-04-28T10:47:02.719Z</time>
</trkpt>
<trkpt lat="50.49670700" lon="8.66740000">
<ele>201.103</ele>
<time>2026-04-28T10:47:04.632Z</time>
</trkpt>
<trkpt lat="50.49672500" lon="8.66762300">
<ele>201.301</ele>
<time>2026-04-28T10:47:08.147Z</time>
</trkpt>
<trkpt lat="50.49691800" lon="8.66755200">
<ele>201.575</ele>
<time>2026-04-28T10:47:13.215Z</time>
</trkpt>
<trkpt lat="50.49738600" lon="8.66734400">
<ele>203.238</ele>
<time>2026-04-28T10:47:26.510Z</time>
</trkpt>
<trkpt lat="50.49771800" lon="8.66731000">
<ele>204.592</ele>
<time>2026-04-28T10:47:36.680Z</time>
</trkpt>
<trkpt lat="50.49786900" lon="8.66734600">
<ele>205.213</ele>
<time>2026-04-28T10:47:41.698Z</time>
</trkpt>
<trkpt lat="50.49800200" lon="8.66740900">
<ele>205.779</ele>
<time>2026-04-28T10:47:46.316Z</time>
</trkpt>
<trkpt lat="50.49821400" lon="8.66758200">
<ele>206.751</ele>
<time>2026-04-28T10:47:54.058Z</time>
</trkpt>
<trkpt lat="50.49836600" lon="8.66792000">
<ele>207.822</ele>
<time>2026-04-28T10:48:02.604Z</time>
</trkpt>
<trkpt lat="50.49851200" lon="8.66844800">
<ele>209.347</ele>
<time>2026-04-28T10:48:15.022Z</time>
</trkpt>
<trkpt lat="50.49857000" lon="8.66867700">
<ele>210.073</ele>
<time>2026-04-28T10:48:20.563Z</time>
</trkpt>
<trkpt lat="50.49871100" lon="8.66913000">
<ele>211.557</ele>
<time>2026-04-28T10:48:31.977Z</time>
</trkpt>
<trkpt lat="50.49926100" lon="8.67026200">
<ele>215.750</ele>
<time>2026-04-28T10:49:01.777Z</time>
</trkpt>
<trkpt lat="50.49954200" lon="8.67077100">
<ele>217.711</ele>
<time>2026-04-28T10:49:16.115Z</time>
</trkpt>
<trkpt lat="50.50024200" lon="8.67191200">
<ele>222.080</ele>
<time>2026-04-28T10:49:48.289Z</time>
</trkpt>
<trkpt lat="50.50037600" lon="8.67228900">
<ele>223.271</ele>
<time>2026-04-28T10:49:57.194Z</time>
</trkpt>
<trkpt lat="50.50076100" lon="8.67393600">
<ele>227.654</ele>
<time>2026-04-28T10:50:32.694Z</time>
</trkpt>
<trkpt lat="50.50110700" lon="8.67479000">
<ele>230.014</ele>
<time>2026-04-28T10:50:51.175Z</time>
</trkpt>
<trkpt lat="50.50123200" lon="8.67492500">
<ele>230.570</ele>
<time>2026-04-28T10:50:55.378Z</time>
</trkpt>
<trkpt lat="50.50179400" lon="8.67601100">
<ele>233.761</ele>
<time>2026-04-28T10:51:19.459Z</time>
</trkpt>
<trkpt lat="50.50234800" lon="8.67705700">
<ele>236.823</ele>
<time>2026-04-28T10:51:43.612Z</time>
</trkpt>
<trkpt lat="50.50299700" lon="8.67831700">
<ele>240.634</ele>
<time>2026-04-28T10:52:18.163Z</time>
</trkpt>
<trkpt lat="50.50320600" lon="8.67874800">
<ele>241.938</ele>
<time>2026-04-28T10:52:29.622Z</time>
</trkpt>
<trkpt lat="50.50331600" lon="8.67897300">
<ele>242.621</ele>
<time>2026-04-28T10:52:35.388Z</time>
</trkpt>
<trkpt lat="50.50369400" lon="8.67959100">
<ele>244.684</ele>
<time>2026-04-28T10:52:51.123Z</time>
</trkpt>
<trkpt lat="50.50414000" lon="8.68022700">
<ele>244.596</ele>
<time>2026-04-28T10:53:02.932Z</time>
</trkpt>
<trkpt lat="50.50460500" lon="8.68077500">
<ele>244.234</ele>
<time>2026-04-28T10:53:10.117Z</time>
</trkpt>
<trkpt lat="50.50463900" lon="8.68081200">
<ele>244.208</ele>
<time>2026-04-28T10:53:10.604Z</time>
</trkpt>
<trkpt lat="50.50508200" lon="8.68131100">
<ele>243.869</ele>
<time>2026-04-28T10:53:19.279Z</time>
</trkpt>
<trkpt lat="50.50551000" lon="8.68175500">
<ele>242.048</ele>
<time>2026-04-28T10:53:24.392Z</time>
</trkpt>
<trkpt lat="50.50564100" lon="8.68182000">
<ele>241.469</ele>
<time>2026-04-28T10:53:25.711Z</time>
</trkpt>
<trkpt lat="50.50594000" lon="8.68207000">
<ele>240.044</ele>
<time>2026-04-28T10:53:29.002Z</time>
</trkpt>
<trkpt lat="50.50617100" lon="8.68226400">
<ele>238.941</ele>
<time>2026-04-28T10:53:31.545Z</time>
</trkpt>
<trkpt lat="50.50662000" lon="8.68246200">
<ele>236.978</ele>
<time>2026-04-28T10:53:35.941Z</time>
</trkpt>
<trkpt lat="50.50686200" lon="8.68251100">
<ele>235.911</ele>
<time>2026-04-28T10:53:38.187Z</time>
</trkpt>
<trkpt lat="50.50723000" lon="8.68252700">
<ele>234.152</ele>
<time>2026-04-28T10:53:41.605Z</time>
</trkpt>
<trkpt lat="50.50935700" lon="8.68188100">
<ele>224.449</ele>
<time>2026-04-28T10:54:02.352Z</time>
</trkpt>
<trkpt lat="50.50977100" lon="8.68170700">
<ele>222.749</ele>
<time>2026-04-28T10:54:06.561Z</time>
</trkpt>
<trkpt lat="50.51175000" lon="8.68057500">
<ele>215.475</ele>
<time>2026-04-28T10:54:27.711Z</time>
</trkpt>
<trkpt lat="50.51203200" lon="8.68044300">
<ele>214.534</ele>
<time>2026-04-28T10:54:30.739Z</time>
</trkpt>
<trkpt lat="50.51341000" lon="8.67980300">
<ele>210.650</ele>
<time>2026-04-28T10:54:45.769Z</time>
</trkpt>
<trkpt lat="50.51396600" lon="8.67957600">
<ele>209.206</ele>
<time>2026-04-28T10:54:51.806Z</time>
</trkpt>
<trkpt lat="50.51445700" lon="8.67928600">
<ele>208.017</ele>
<time>2026-04-28T10:54:57.362Z</time>
</trkpt>
<trkpt lat="50.51626800" lon="8.67749000">
<ele>203.425</ele>
<time>2026-04-28T10:55:20.806Z</time>
</trkpt>
<trkpt lat="50.51811800" lon="8.67609100">
<ele>199.199</ele>
<time>2026-04-28T10:55:43.297Z</time>
</trkpt>
<trkpt lat="50.51879900" lon="8.67559400">
<ele>197.565</ele>
<time>2026-04-28T10:55:51.396Z</time>
</trkpt>
<trkpt lat="50.51934000" lon="8.67531300">
<ele>196.243</ele>
<time>2026-04-28T10:55:57.510Z</time>
</trkpt>
<trkpt lat="50.52000200" lon="8.67507400">
<ele>194.669</ele>
<time>2026-04-28T10:56:04.737Z</time>
</trkpt>
<trkpt lat="50.52078600" lon="8.67497000">
<ele>192.726</ele>
<time>2026-04-28T10:56:13.115Z</time>
</trkpt>
<trkpt lat="50.52183500" lon="8.67493700">
<ele>190.071</ele>
<time>2026-04-28T10:56:24.234Z</time>
</trkpt>
<trkpt lat="50.52290500" lon="8.67494600">
<ele>186.798</ele>
<time>2026-04-28T10:56:35.242Z</time>
</trkpt>
<trkpt lat="50.52296300" lon="8.67507100">
<ele>186.486</ele>
<time>2026-04-28T10:56:36.240Z</time>
</trkpt>
<trkpt lat="50.52350500" lon="8.67505300">
<ele>184.765</ele>
<time>2026-04-28T10:56:41.654Z</time>
</trkpt>
<trkpt lat="50.52400700" lon="8.67495900">
<ele>183.275</ele>
<time>2026-04-28T10:56:46.665Z</time>
</trkpt>
<trkpt lat="50.52401300" lon="8.67500300">
<ele>183.199</ele>
<time>2026-04-28T10:56:46.952Z</time>
</trkpt>
<trkpt lat="50.52466700" lon="8.67488800">
<ele>181.444</ele>
<time>2026-04-28T10:56:53.703Z</time>
</trkpt>
<trkpt lat="50.52552100" lon="8.67472500">
<ele>179.149</ele>
<time>2026-04-28T10:57:02.879Z</time>
</trkpt>
<trkpt lat="50.52647900" lon="8.67435100">
<ele>177.844</ele>
<time>2026-04-28T10:57:14.257Z</time>
</trkpt>
<trkpt lat="50.52675500" lon="8.67420900">
<ele>177.470</ele>
<time>2026-04-28T10:57:17.698Z</time>
</trkpt>
<trkpt lat="50.52697000" lon="8.67407400">
<ele>177.173</ele>
<time>2026-04-28T10:57:20.499Z</time>
</trkpt>
<trkpt lat="50.52791500" lon="8.67355000">
<ele>176.753</ele>
<time>2026-04-28T10:57:33.958Z</time>
</trkpt>
<trkpt lat="50.52795200" lon="8.67350600">
<ele>176.752</ele>
<time>2026-04-28T10:57:34.622Z</time>
</trkpt>
<trkpt lat="50.52799500" lon="8.67378100">
<ele>176.748</ele>
<time>2026-04-28T10:57:37.322Z</time>
</trkpt>
<trkpt lat="50.52827400" lon="8.67559300">
<ele>176.948</ele>
<time>2026-04-28T10:57:56.313Z</time>
</trkpt>
<trkpt lat="50.52851700" lon="8.67622000">
<ele>177.288</ele>
<time>2026-04-28T10:58:04.512Z</time>
</trkpt>
<trkpt lat="50.52863100" lon="8.67661900">
<ele>177.491</ele>
<time>2026-04-28T10:58:09.581Z</time>
</trkpt>
<trkpt lat="50.52867100" lon="8.67669600">
<ele>177.537</ele>
<time>2026-04-28T10:58:10.750Z</time>
</trkpt>
<trkpt lat="50.52861600" lon="8.67690200">
<ele>177.640</ele>
<time>2026-04-28T10:58:13.378Z</time>
</trkpt>
<trkpt lat="50.52861300" lon="8.67723900">
<ele>177.796</ele>
<time>2026-04-28T10:58:17.346Z</time>
</trkpt>
<trkpt lat="50.52880200" lon="8.67800700">
<ele>178.206</ele>
<time>2026-04-28T10:58:27.244Z</time>
</trkpt>
<trkpt lat="50.52910200" lon="8.68000500">
<ele>179.350</ele>
<time>2026-04-28T10:58:51.938Z</time>
</trkpt>
<trkpt lat="50.52927400" lon="8.68112100">
<ele>179.619</ele>
<time>2026-04-28T10:59:03.851Z</time>
</trkpt>
<trkpt lat="50.52946200" lon="8.68284600">
<ele>179.621</ele>
<time>2026-04-28T10:59:19.375Z</time>
</trkpt>
<trkpt lat="50.52956900" lon="8.68383600">
<ele>179.658</ele>
<time>2026-04-28T10:59:28.655Z</time>
</trkpt>
<trkpt lat="50.52951700" lon="8.68388100">
<ele>179.664</ele>
<time>2026-04-28T10:59:29.635Z</time>
</trkpt>
<trkpt lat="50.52950100" lon="8.68397000">
<ele>179.670</ele>
<time>2026-04-28T10:59:30.609Z</time>
</trkpt>
<trkpt lat="50.52953300" lon="8.68405500">
<ele>179.676</ele>
<time>2026-04-28T10:59:31.614Z</time>
</trkpt>
<trkpt lat="50.52959500" lon="8.68407300">
<ele>179.682</ele>
<time>2026-04-28T10:59:32.642Z</time>
</trkpt>
<trkpt lat="50.52960600" lon="8.68418700">
<ele>179.689</ele>
<time>2026-04-28T10:59:33.815Z</time>
</trkpt>
<trkpt lat="50.52955600" lon="8.68419900">
<ele>179.694</ele>
<time>2026-04-28T10:59:34.655Z</time>
</trkpt>
<trkpt lat="50.52956900" lon="8.68433100">
<ele>179.703</ele>
<time>2026-04-28T10:59:36.011Z</time>
</trkpt>
<trkpt lat="50.52968600" lon="8.68547000">
<ele>179.774</ele>
<time>2026-04-28T10:59:47.592Z</time>
</trkpt>
<trkpt lat="50.52978200" lon="8.68647800">
<ele>179.839</ele>
<time>2026-04-28T10:59:57.076Z</time>
</trkpt>
<trkpt lat="50.52995600" lon="8.68728200">
<ele>179.893</ele>
<time>2026-04-28T11:00:04.410Z</time>
</trkpt>
<trkpt lat="50.53001900" lon="8.68750800">
<ele>179.909</ele>
<time>2026-04-28T11:00:06.547Z</time>
</trkpt>
<trkpt lat="50.53010900" lon="8.68771900">
<ele>179.925</ele>
<time>2026-04-28T11:00:08.880Z</time>
</trkpt>
<trkpt lat="50.53064200" lon="8.68868000">
<ele>180.238</ele>
<time>2026-04-28T11:00:22.865Z</time>
</trkpt>
<trkpt lat="50.53088500" lon="8.68922500">
<ele>180.626</ele>
<time>2026-04-28T11:00:31.455Z</time>
</trkpt>
<trkpt lat="50.53113500" lon="8.69008700">
<ele>181.178</ele>
<time>2026-04-28T11:00:43.711Z</time>
</trkpt>
<trkpt lat="50.53128800" lon="8.69099600">
<ele>181.577</ele>
<time>2026-04-28T11:00:54.567Z</time>
</trkpt>
<trkpt lat="50.53154000" lon="8.69275900">
<ele>181.047</ele>
<time>2026-04-28T11:01:09.676Z</time>
</trkpt>
<trkpt lat="50.53178600" lon="8.69452100">
<ele>180.781</ele>
<time>2026-04-28T11:01:23.675Z</time>
</trkpt>
<trkpt lat="50.53206700" lon="8.69653700">
<ele>180.948</ele>
<time>2026-04-28T11:01:44.520Z</time>
</trkpt>
<trkpt lat="50.53235300" lon="8.69944900">
<ele>184.188</ele>
<time>2026-04-28T11:02:26.142Z</time>
</trkpt>
<trkpt lat="50.53242500" lon="8.70021500">
<ele>185.323</ele>
<time>2026-04-28T11:02:38.506Z</time>
</trkpt>
<trkpt lat="50.53255000" lon="8.70153100">
<ele>187.273</ele>
<time>2026-04-28T11:02:59.438Z</time>
</trkpt>
<trkpt lat="50.53260300" lon="8.70188300">
<ele>187.803</ele>
<time>2026-04-28T11:03:05.038Z</time>
</trkpt>
<trkpt lat="50.53260700" lon="8.70191400">
<ele>187.849</ele>
<time>2026-04-28T11:03:05.542Z</time>
</trkpt>
<trkpt lat="50.53263000" lon="8.70195800">
<ele>187.930</ele>
<time>2026-04-28T11:03:06.384Z</time>
</trkpt>
<trkpt lat="50.53267800" lon="8.70194800">
<ele>188.034</ele>
<time>2026-04-28T11:03:10.639Z</time>
</trkpt>
<trkpt lat="50.53271100" lon="8.70200700">
<ele>188.142</ele>
<time>2026-04-28T11:03:11.831Z</time>
</trkpt>
<trkpt lat="50.53279600" lon="8.70258200">
<ele>188.951</ele>
<time>2026-04-28T11:03:20.488Z</time>
</trkpt>
<trkpt lat="50.53284600" lon="8.70319300">
<ele>189.795</ele>
<time>2026-04-28T11:03:29.312Z</time>
</trkpt>
<trkpt lat="50.53290800" lon="8.70319400">
<ele>189.929</ele>
<time>2026-04-28T11:03:30.691Z</time>
</trkpt>
<trkpt lat="50.53291600" lon="8.70332200">
<ele>190.105</ele>
<time>2026-04-28T11:03:32.527Z</time>
</trkpt>
<trkpt lat="50.53285600" lon="8.70336300">
<ele>190.246</ele>
<time>2026-04-28T11:03:34.002Z</time>
</trkpt>
<trkpt lat="50.53281900" lon="8.70350200">
<ele>190.453</ele>
<time>2026-04-28T11:03:36.188Z</time>
</trkpt>
<trkpt lat="50.53284500" lon="8.70360100">
<ele>190.600</ele>
<time>2026-04-28T11:03:37.803Z</time>
</trkpt>
<trkpt lat="50.53293900" lon="8.70365800">
<ele>190.817</ele>
<time>2026-04-28T11:03:40.165Z</time>
</trkpt>
<trkpt lat="50.53303900" lon="8.70519500">
<ele>192.979</ele>
<time>2026-04-28T11:04:04.030Z</time>
</trkpt>
<trkpt lat="50.53310400" lon="8.70648600">
<ele>194.823</ele>
<time>2026-04-28T11:04:24.812Z</time>
</trkpt>
<trkpt lat="50.53310100" lon="8.70885200">
<ele>196.838</ele>
<time>2026-04-28T11:04:56.425Z</time>
</trkpt>
<trkpt lat="50.53311400" lon="8.70904800">
<ele>196.960</ele>
<time>2026-04-28T11:04:58.461Z</time>
</trkpt>
<trkpt lat="50.53317800" lon="8.70930600">
<ele>197.131</ele>
<time>2026-04-28T11:05:01.287Z</time>
</trkpt>
<trkpt lat="50.53333500" lon="8.70989800">
<ele>197.528</ele>
<time>2026-04-28T11:05:07.380Z</time>
</trkpt>
<trkpt lat="50.53360400" lon="8.71112100">
<ele>198.070</ele>
<time>2026-04-28T11:05:19.147Z</time>
</trkpt>
<trkpt lat="50.53371800" lon="8.71193200">
<ele>198.414</ele>
<time>2026-04-28T11:05:28.584Z</time>
</trkpt>
<trkpt lat="50.53389000" lon="8.71342400">
<ele>199.942</ele>
<time>2026-04-28T11:05:48.978Z</time>
</trkpt>
<trkpt lat="50.53392600" lon="8.71372900">
<ele>200.430</ele>
<time>2026-04-28T11:05:53.746Z</time>
</trkpt>
<trkpt lat="50.53401200" lon="8.71432800">
<ele>201.394</ele>
<time>2026-04-28T11:06:03.859Z</time>
</trkpt>
<trkpt lat="50.53405200" lon="8.71460200">
<ele>201.836</ele>
<time>2026-04-28T11:06:08.671Z</time>
</trkpt>
<trkpt lat="50.53410400" lon="8.71492200">
<ele>202.355</ele>
<time>2026-04-28T11:06:14.451Z</time>
</trkpt>
<trkpt lat="50.53417500" lon="8.71541100">
<ele>203.143</ele>
<time>2026-04-28T11:06:23.119Z</time>
</trkpt>
<trkpt lat="50.53427300" lon="8.71589800">
<ele>203.996</ele>
<time>2026-04-28T11:06:31.770Z</time>
</trkpt>
<trkpt lat="50.53442900" lon="8.71647900">
<ele>205.051</ele>
<time>2026-04-28T11:06:42.374Z</time>
</trkpt>
<trkpt lat="50.53459900" lon="8.71714500">
<ele>206.252</ele>
<time>2026-04-28T11:06:54.408Z</time>
</trkpt>
<trkpt lat="50.53461000" lon="8.71718400">
<ele>206.323</ele>
<time>2026-04-28T11:06:55.096Z</time>
</trkpt>
<trkpt lat="50.53483400" lon="8.71808400">
<ele>207.913</ele>
<time>2026-04-28T11:07:10.165Z</time>
</trkpt>
<trkpt lat="50.53498600" lon="8.71882500">
<ele>208.351</ele>
<time>2026-04-28T11:07:20.512Z</time>
</trkpt>
<trkpt lat="50.53510000" lon="8.71938700">
<ele>208.684</ele>
<time>2026-04-28T11:07:27.313Z</time>
</trkpt>
<trkpt lat="50.53526900" lon="8.72001400">
<ele>209.067</ele>
<time>2026-04-28T11:07:34.405Z</time>
</trkpt>
<trkpt lat="50.53538400" lon="8.72029700">
<ele>209.256</ele>
<time>2026-04-28T11:07:37.619Z</time>
</trkpt>
<trkpt lat="50.53573600" lon="8.72091000">
<ele>209.798</ele>
<time>2026-04-28T11:07:45.188Z</time>
</trkpt>
<trkpt lat="50.53641600" lon="8.72204700">
<ele>210.969</ele>
<time>2026-04-28T11:08:04.043Z</time>
</trkpt>
<trkpt lat="50.53682600" lon="8.72273400">
<ele>211.700</ele>
<time>2026-04-28T11:08:18.198Z</time>
</trkpt>
<trkpt lat="50.53699900" lon="8.72303600">
<ele>212.128</ele>
<time>2026-04-28T11:08:24.253Z</time>
</trkpt>
<trkpt lat="50.53716000" lon="8.72339100">
<ele>212.588</ele>
<time>2026-04-28T11:08:30.617Z</time>
</trkpt>
<trkpt lat="50.53727500" lon="8.72373300">
<ele>212.995</ele>
<time>2026-04-28T11:08:36.239Z</time>
</trkpt>
<trkpt lat="50.53743300" lon="8.72436500">
<ele>213.711</ele>
<time>2026-04-28T11:08:45.685Z</time>
</trkpt>
<trkpt lat="50.53750700" lon="8.72469500">
<ele>214.080</ele>
<time>2026-04-28T11:08:50.249Z</time>
</trkpt>
<trkpt lat="50.53779500" lon="8.72598900">
<ele>214.505</ele>
<time>2026-04-28T11:09:06.376Z</time>
</trkpt>
<trkpt lat="50.53794200" lon="8.72687900">
<ele>214.409</ele>
<time>2026-04-28T11:09:14.964Z</time>
</trkpt>
<trkpt lat="50.53805000" lon="8.72769100">
<ele>214.322</ele>
<time>2026-04-28T11:09:21.441Z</time>
</trkpt>
<trkpt lat="50.53814900" lon="8.72873300">
<ele>213.505</ele>
<time>2026-04-28T11:09:28.900Z</time>
</trkpt>
<trkpt lat="50.53821500" lon="8.72929500">
<ele>212.971</ele>
<time>2026-04-28T11:09:32.853Z</time>
</trkpt>
<trkpt lat="50.53838900" lon="8.73052800">
<ele>211.790</ele>
<time>2026-04-28T11:09:42.105Z</time>
</trkpt>
<trkpt lat="50.53858000" lon="8.73149600">
<ele>211.612</ele>
<time>2026-04-28T11:09:50.628Z</time>
</trkpt>
<trkpt lat="50.53859500" lon="8.73157000">
<ele>211.608</ele>
<time>2026-04-28T11:09:51.307Z</time>
</trkpt>
<trkpt lat="50.53853300" lon="8.73160700">
<ele>211.603</ele>
<time>2026-04-28T11:09:52.691Z</time>
</trkpt>
<trkpt lat="50.53849000" lon="8.73174700">
<ele>211.595</ele>
<time>2026-04-28T11:09:54.669Z</time>
</trkpt>
<trkpt lat="50.53843900" lon="8.73211600">
<ele>211.575</ele>
<time>2026-04-28T11:09:59.766Z</time>
</trkpt>
<trkpt lat="50.53849600" lon="8.73219600">
<ele>211.569</ele>
<time>2026-04-28T11:10:01.392Z</time>
</trkpt>
<trkpt lat="50.53856200" lon="8.73230600">
<ele>211.561</ele>
<time>2026-04-28T11:10:03.471Z</time>
</trkpt>
<trkpt lat="50.53851300" lon="8.73245200">
<ele>211.553</ele>
<time>2026-04-28T11:10:05.247Z</time>
</trkpt>
<trkpt lat="50.53849800" lon="8.73260500">
<ele>211.545</ele>
<time>2026-04-28T11:10:06.853Z</time>
</trkpt>
<trkpt lat="50.53853400" lon="8.73324200">
<ele>211.512</ele>
<time>2026-04-28T11:10:13.705Z</time>
</trkpt>
<trkpt lat="50.53860300" lon="8.73467700">
<ele>212.358</ele>
<time>2026-04-28T11:10:27.713Z</time>
</trkpt>
<trkpt lat="50.53863900" lon="8.73551000">
<ele>212.854</ele>
<time>2026-04-28T11:10:37.959Z</time>
</trkpt>
<trkpt lat="50.53872300" lon="8.73616800">
<ele>213.351</ele>
<time>2026-04-28T11:10:47.653Z</time>
</trkpt>
<trkpt lat="50.53886700" lon="8.73702700">
<ele>214.734</ele>
<time>2026-04-28T11:11:01.821Z</time>
</trkpt>
<trkpt lat="50.53891600" lon="8.73753100">
<ele>215.528</ele>
<time>2026-04-28T11:11:10.443Z</time>
</trkpt>
<trkpt lat="50.53891300" lon="8.73836000">
<ele>216.819</ele>
<time>2026-04-28T11:11:23.703Z</time>
</trkpt>
<trkpt lat="50.53886400" lon="8.73886700">
<ele>217.616</ele>
<time>2026-04-28T11:11:31.595Z</time>
</trkpt>
<trkpt lat="50.53866700" lon="8.73992000">
<ele>219.216</ele>
<time>2026-04-28T11:11:48.514Z</time>
</trkpt>
<trkpt lat="50.53848300" lon="8.74107700">
<ele>220.955</ele>
<time>2026-04-28T11:12:06.873Z</time>
</trkpt>
<trkpt lat="50.53845200" lon="8.74107300">
<ele>221.026</ele>
<time>2026-04-28T11:12:07.613Z</time>
</trkpt>
<trkpt lat="50.53842300" lon="8.74123500">
<ele>221.271</ele>
<time>2026-04-28T11:12:10.171Z</time>
</trkpt>
<trkpt lat="50.53825300" lon="8.74219700">
<ele>222.066</ele>
<time>2026-04-28T11:12:24.861Z</time>
</trkpt>
<trkpt lat="50.53816600" lon="8.74259900">
<ele>222.277</ele>
<time>2026-04-28T11:12:30.479Z</time>
</trkpt>
<trkpt lat="50.53790400" lon="8.74363800">
<ele>222.833</ele>
<time>2026-04-28T11:12:42.795Z</time>
</trkpt>
<trkpt lat="50.53773200" lon="8.74411000">
<ele>223.104</ele>
<time>2026-04-28T11:12:47.282Z</time>
</trkpt>
<trkpt lat="50.53746600" lon="8.74465300">
<ele>222.947</ele>
<time>2026-04-28T11:12:52.686Z</time>
</trkpt>
<trkpt lat="50.53724000" lon="8.74501700">
<ele>222.799</ele>
<time>2026-04-28T11:12:56.780Z</time>
</trkpt>
<trkpt lat="50.53702800" lon="8.74528500">
<ele>222.674</ele>
<time>2026-04-28T11:13:00.257Z</time>
</trkpt>
<trkpt lat="50.53674600" lon="8.74557600">
<ele>222.519</ele>
<time>2026-04-28T11:13:04.661Z</time>
</trkpt>
<trkpt lat="50.53629300" lon="8.74594900">
<ele>222.323</ele>
<time>2026-04-28T11:13:11.685Z</time>
</trkpt>
<trkpt lat="50.53583400" lon="8.74627500">
<ele>222.527</ele>
<time>2026-04-28T11:13:19.885Z</time>
</trkpt>
<trkpt lat="50.53564400" lon="8.74640200">
<ele>222.610</ele>
<time>2026-04-28T11:13:23.476Z</time>
</trkpt>
<trkpt lat="50.53493000" lon="8.74683600">
<ele>222.919</ele>
<time>2026-04-28T11:13:36.317Z</time>
</trkpt>
<trkpt lat="50.53410200" lon="8.74727500">
<ele>223.781</ele>
<time>2026-04-28T11:13:51.481Z</time>
</trkpt>
<trkpt lat="50.53382300" lon="8.74739500">
<ele>224.144</ele>
<time>2026-04-28T11:13:57.122Z</time>
</trkpt>
<trkpt lat="50.53371800" lon="8.74743900">
<ele>224.281</ele>
<time>2026-04-28T11:13:59.345Z</time>
</trkpt>
<trkpt lat="50.53292400" lon="8.74764200">
<ele>225.291</ele>
<time>2026-04-28T11:14:16.976Z</time>
</trkpt>
<trkpt lat="50.53229400" lon="8.74778900">
<ele>226.206</ele>
<time>2026-04-28T11:14:30.923Z</time>
</trkpt>
<trkpt lat="50.53195200" lon="8.74787100">
<ele>226.703</ele>
<time>2026-04-28T11:14:38.109Z</time>
</trkpt>
<trkpt lat="50.53182500" lon="8.74790000">
<ele>226.887</ele>
<time>2026-04-28T11:14:40.702Z</time>
</trkpt>
<trkpt lat="50.53171200" lon="8.74792700">
<ele>227.051</ele>
<time>2026-04-28T11:14:42.952Z</time>
</trkpt>
<trkpt lat="50.53127100" lon="8.74802900">
<ele>227.691</ele>
<time>2026-04-28T11:14:51.426Z</time>
</trkpt>
<trkpt lat="50.53099400" lon="8.74809400">
<ele>228.168</ele>
<time>2026-04-28T11:14:56.771Z</time>
</trkpt>
<trkpt lat="50.53084300" lon="8.74812900">
<ele>228.462</ele>
<time>2026-04-28T11:14:59.695Z</time>
</trkpt>
<trkpt lat="50.53080300" lon="8.74813800">
<ele>228.540</ele>
<time>2026-04-28T11:15:00.474Z</time>
</trkpt>
<trkpt lat="50.53037800" lon="8.74822800">
<ele>229.365</ele>
<time>2026-04-28T11:15:09.054Z</time>
</trkpt>
<trkpt lat="50.52966100" lon="8.74838200">
<ele>230.759</ele>
<time>2026-04-28T11:15:26.198Z</time>
</trkpt>
<trkpt lat="50.52964100" lon="8.74838600">
<ele>230.798</ele>
<time>2026-04-28T11:15:26.670Z</time>
</trkpt>
<trkpt lat="50.52904400" lon="8.74850800">
<ele>232.205</ele>
<time>2026-04-28T11:15:42.468Z</time>
</trkpt>
<trkpt lat="50.52900600" lon="8.74851600">
<ele>232.308</ele>
<time>2026-04-28T11:15:43.584Z</time>
</trkpt>
<trkpt lat="50.52879800" lon="8.74855900">
<ele>232.874</ele>
<time>2026-04-28T11:15:49.645Z</time>
</trkpt>
<trkpt lat="50.52867600" lon="8.74862000">
<ele>233.219</ele>
<time>2026-04-28T11:15:53.247Z</time>
</trkpt>
<trkpt lat="50.52854500" lon="8.74881800">
<ele>233.708</ele>
<time>2026-04-28T11:15:58.271Z</time>
</trkpt>
<trkpt lat="50.52840600" lon="8.74872100">
<ele>234.118</ele>
<time>2026-04-28T11:16:02.400Z</time>
</trkpt>
<trkpt lat="50.52816100" lon="8.74882900">
<ele>234.804</ele>
<time>2026-04-28T11:16:09.039Z</time>
</trkpt>
<trkpt lat="50.52797300" lon="8.74891100">
<ele>235.330</ele>
<time>2026-04-28T11:16:14.067Z</time>
</trkpt>
<trkpt lat="50.52725700" lon="8.74925400">
<ele>236.762</ele>
<time>2026-04-28T11:16:30.759Z</time>
</trkpt>
<trkpt lat="50.52701100" lon="8.74932800">
<ele>237.097</ele>
<time>2026-04-28T11:16:35.786Z</time>
</trkpt>
<trkpt lat="50.52695000" lon="8.74932900">
<ele>237.179</ele>
<time>2026-04-28T11:16:36.986Z</time>
</trkpt>
<trkpt lat="50.52656800" lon="8.74934000">
<ele>237.690</ele>
<time>2026-04-28T11:16:43.718Z</time>
</trkpt>
<trkpt lat="50.52625300" lon="8.74921900">
<ele>238.124</ele>
<time>2026-04-28T11:16:49.630Z</time>
</trkpt>
<trkpt lat="50.52610500" lon="8.74910600">
<ele>238.344</ele>
<time>2026-04-28T11:16:52.700Z</time>
</trkpt>
<trkpt lat="50.52496300" lon="8.74836300">
<ele>240.064</ele>
<time>2026-04-28T11:17:18.270Z</time>
</trkpt>
<trkpt lat="50.52413500" lon="8.74787900">
<ele>241.056</ele>
<time>2026-04-28T11:17:37.056Z</time>
</trkpt>
<trkpt lat="50.52411100" lon="8.74786400">
<ele>241.045</ele>
<time>2026-04-28T11:17:37.542Z</time>
</trkpt>
<trkpt lat="50.52389000" lon="8.74773500">
<ele>240.947</ele>
<time>2026-04-28T11:17:41.647Z</time>
</trkpt>
<trkpt lat="50.52351000" lon="8.74751300">
<ele>240.777</ele>
<time>2026-04-28T11:17:48.038Z</time>
</trkpt>
<trkpt lat="50.52324900" lon="8.74731400">
<ele>240.656</ele>
<time>2026-04-28T11:17:51.987Z</time>
</trkpt>
<trkpt lat="50.52294000" lon="8.74707900">
<ele>240.512</ele>
<time>2026-04-28T11:17:56.186Z</time>
</trkpt>
<trkpt lat="50.52270000" lon="8.74688000">
<ele>240.399</ele>
<time>2026-04-28T11:17:59.271Z</time>
</trkpt>
<trkpt lat="50.52209000" lon="8.74631100">
<ele>239.189</ele>
<time>2026-04-28T11:18:06.667Z</time>
</trkpt>
<trkpt lat="50.52148900" lon="8.74581400">
<ele>237.901</ele>
<time>2026-04-28T11:18:13.945Z</time>
</trkpt>
<trkpt lat="50.52130400" lon="8.74538200">
<ele>237.273</ele>
<time>2026-04-28T11:18:17.701Z</time>
</trkpt>
<trkpt lat="50.52107500" lon="8.74486800">
<ele>237.033</ele>
<time>2026-04-28T11:18:22.588Z</time>
</trkpt>
<trkpt lat="50.52094200" lon="8.74464200">
<ele>237.106</ele>
<time>2026-04-28T11:18:25.262Z</time>
</trkpt>
<trkpt lat="50.51992400" lon="8.74304700">
<ele>237.635</ele>
<time>2026-04-28T11:18:51.978Z</time>
</trkpt>
<trkpt lat="50.51976000" lon="8.74270000">
<ele>237.704</ele>
<time>2026-04-28T11:18:56.937Z</time>
</trkpt>
<trkpt lat="50.51930900" lon="8.74174600">
<ele>237.895</ele>
<time>2026-04-28T11:19:09.461Z</time>
</trkpt>
<trkpt lat="50.51857900" lon="8.74001800">
<ele>237.786</ele>
<time>2026-04-28T11:19:27.789Z</time>
</trkpt>
<trkpt lat="50.51690200" lon="8.73606800">
<ele>236.087</ele>
<time>2026-04-28T11:20:07.306Z</time>
</trkpt>
<trkpt lat="50.51686900" lon="8.73599000">
<ele>236.022</ele>
<time>2026-04-28T11:20:08.046Z</time>
</trkpt>
<trkpt lat="50.51567600" lon="8.73322700">
<ele>233.571</ele>
<time>2026-04-28T11:20:33.404Z</time>
</trkpt>
<trkpt lat="50.51552100" lon="8.73301400">
<ele>233.276</ele>
<time>2026-04-28T11:20:35.818Z</time>
</trkpt>
<trkpt lat="50.51442200" lon="8.73175200">
<ele>231.398</ele>
<time>2026-04-28T11:20:51.440Z</time>
</trkpt>
<trkpt lat="50.51432000" lon="8.73160700">
<ele>231.257</ele>
<time>2026-04-28T11:20:53.006Z</time>
</trkpt>
<trkpt lat="50.51403000" lon="8.73126100">
<ele>230.883</ele>
<time>2026-04-28T11:20:57.198Z</time>
</trkpt>
<trkpt lat="50.51351400" lon="8.73075900">
<ele>230.259</ele>
<time>2026-04-28T11:21:04.359Z</time>
</trkpt>
<trkpt lat="50.51279400" lon="8.73036500">
<ele>230.191</ele>
<time>2026-04-28T11:21:14.588Z</time>
</trkpt>
<trkpt lat="50.51244400" lon="8.73031000">
<ele>230.796</ele>
<time>2026-04-28T11:21:21.026Z</time>
</trkpt>
<trkpt lat="50.51185100" lon="8.73028100">
<ele>231.816</ele>
<time>2026-04-28T11:21:33.896Z</time>
</trkpt>
<trkpt lat="50.51148600" lon="8.73012100">
<ele>232.468</ele>
<time>2026-04-28T11:21:44.032Z</time>
</trkpt>
<trkpt lat="50.51143300" lon="8.73009700">
<ele>232.563</ele>
<time>2026-04-28T11:21:45.605Z</time>
</trkpt>
<trkpt lat="50.51089000" lon="8.73010400">
<ele>234.566</ele>
<time>2026-04-28T11:22:01.304Z</time>
</trkpt>
<trkpt lat="50.51087700" lon="8.72983200">
<ele>235.348</ele>
<time>2026-04-28T11:22:06.961Z</time>
</trkpt>
<trkpt lat="50.51082500" lon="8.72960600">
<ele>236.037</ele>
<time>2026-04-28T11:22:12.168Z</time>
</trkpt>
<trkpt lat="50.51078000" lon="8.72951000">
<ele>236.379</ele>
<time>2026-04-28T11:22:15.088Z</time>
</trkpt>
<trkpt lat="50.51048300" lon="8.72970500">
<ele>237.829</ele>
<time>2026-04-28T11:22:25.579Z</time>
</trkpt>
<trkpt lat="50.51036300" lon="8.72975600">
<ele>238.389</ele>
<time>2026-04-28T11:22:29.881Z</time>
</trkpt>
<trkpt lat="50.51016100" lon="8.72979000">
<ele>239.305</ele>
<time>2026-04-28T11:22:37.214Z</time>
</trkpt>
<trkpt lat="50.50981500" lon="8.72984100">
<ele>240.871</ele>
<time>2026-04-28T11:22:50.432Z</time>
</trkpt>
<trkpt lat="50.50953700" lon="8.72981800">
<ele>241.737</ele>
<time>2026-04-28T11:23:00.161Z</time>
</trkpt>
<trkpt lat="50.50921300" lon="8.72978800">
<ele>242.720</ele>
<time>2026-04-28T11:23:11.389Z</time>
</trkpt>
<trkpt lat="50.50892400" lon="8.72990700">
<ele>243.624</ele>
<time>2026-04-28T11:23:20.973Z</time>
</trkpt>
<trkpt lat="50.50865500" lon="8.73013100">
<ele>244.546</ele>
<time>2026-04-28T11:23:29.028Z</time>
</trkpt>
<trkpt lat="50.50849100" lon="8.73026100">
<ele>245.102</ele>
<time>2026-04-28T11:23:33.402Z</time>
</trkpt>
<trkpt lat="50.50811400" lon="8.73040400">
<ele>246.276</ele>
<time>2026-04-28T11:23:41.329Z</time>
</trkpt>
<trkpt lat="50.50784100" lon="8.73050000">
<ele>245.539</ele>
<time>2026-04-28T11:23:44.994Z</time>
</trkpt>
<trkpt lat="50.50755300" lon="8.73061100">
<ele>244.502</ele>
<time>2026-04-28T11:23:48.276Z</time>
</trkpt>
<trkpt lat="50.50717600" lon="8.73072700">
<ele>243.159</ele>
<time>2026-04-28T11:23:52.198Z</time>
</trkpt>
<trkpt lat="50.50668500" lon="8.73088500">
<ele>241.406</ele>
<time>2026-04-28T11:23:56.945Z</time>
</trkpt>
<trkpt lat="50.50668200" lon="8.73099700">
<ele>241.157</ele>
<time>2026-04-28T11:23:57.599Z</time>
</trkpt>
<trkpt lat="50.50654700" lon="8.73176200">
<ele>238.585</ele>
<time>2026-04-28T11:24:02.193Z</time>
</trkpt>
<trkpt lat="50.50643400" lon="8.73246200">
<ele>235.148</ele>
<time>2026-04-28T11:24:06.269Z</time>
</trkpt>
<trkpt lat="50.50637300" lon="8.73284400">
<ele>233.274</ele>
<time>2026-04-28T11:24:08.474Z</time>
</trkpt>
<trkpt lat="50.50626200" lon="8.73353400">
<ele>229.887</ele>
<time>2026-04-28T11:24:12.463Z</time>
</trkpt>
<trkpt lat="50.50616300" lon="8.73417900">
<ele>226.729</ele>
<time>2026-04-28T11:24:16.201Z</time>
</trkpt>
<trkpt lat="50.50608000" lon="8.73451100">
<ele>225.254</ele>
<time>2026-04-28T11:24:18.221Z</time>
</trkpt>
<trkpt lat="50.50603600" lon="8.73461400">
<ele>224.746</ele>
<time>2026-04-28T11:24:18.924Z</time>
</trkpt>
<trkpt lat="50.50575600" lon="8.73510300">
<ele>222.049</ele>
<time>2026-04-28T11:24:22.679Z</time>
</trkpt>
<trkpt lat="50.50553100" lon="8.73549500">
<ele>219.885</ele>
<time>2026-04-28T11:24:25.723Z</time>
</trkpt>
<trkpt lat="50.50533600" lon="8.73575700">
<ele>218.232</ele>
<time>2026-04-28T11:24:28.082Z</time>
</trkpt>
<trkpt lat="50.50474400" lon="8.73626400">
<ele>214.293</ele>
<time>2026-04-28T11:24:34.335Z</time>
</trkpt>
<trkpt lat="50.50396100" lon="8.73691500">
<ele>210.575</ele>
<time>2026-04-28T11:24:42.821Z</time>
</trkpt>
<trkpt lat="50.50282800" lon="8.73764600">
<ele>206.339</ele>
<time>2026-04-28T11:24:55.168Z</time>
</trkpt>
<trkpt lat="50.50266500" lon="8.73771400">
<ele>205.941</ele>
<time>2026-04-28T11:24:56.952Z</time>
</trkpt>
<trkpt lat="50.50251300" lon="8.73775900">
<ele>205.577</ele>
<time>2026-04-28T11:24:58.598Z</time>
</trkpt>
<trkpt lat="50.50222100" lon="8.73777600">
<ele>204.888</ele>
<time>2026-04-28T11:25:01.742Z</time>
</trkpt>
<trkpt lat="50.50200100" lon="8.73774700">
<ele>204.367</ele>
<time>2026-04-28T11:25:04.132Z</time>
</trkpt>
<trkpt lat="50.50086600" lon="8.73746700">
<ele>203.098</ele>
<time>2026-04-28T11:25:17.384Z</time>
</trkpt>
<trkpt lat="50.50048100" lon="8.73739400">
<ele>203.006</ele>
<time>2026-04-28T11:25:22.739Z</time>
</trkpt>
<trkpt lat="50.49922500" lon="8.73742900">
<ele>203.627</ele>
<time>2026-04-28T11:25:46.063Z</time>
</trkpt>
<trkpt lat="50.49797700" lon="8.73777100">
<ele>205.546</ele>
<time>2026-04-28T11:26:12.872Z</time>
</trkpt>
<trkpt lat="50.49716600" lon="8.73805900">
<ele>208.201</ele>
<time>2026-04-28T11:26:34.078Z</time>
</trkpt>
<trkpt lat="50.49695400" lon="8.73809200">
<ele>208.885</ele>
<time>2026-04-28T11:26:40.287Z</time>
</trkpt>
<trkpt lat="50.49658900" lon="8.73806500">
<ele>210.057</ele>
<time>2026-04-28T11:26:51.598Z</time>
</trkpt>
<trkpt lat="50.49636100" lon="8.73798300">
<ele>210.808</ele>
<time>2026-04-28T11:26:58.933Z</time>
</trkpt>
<trkpt lat="50.49615900" lon="8.73786300">
<ele>211.441</ele>
<time>2026-04-28T11:27:05.862Z</time>
</trkpt>
<trkpt lat="50.49561200" lon="8.73740100">
<ele>212.725</ele>
<time>2026-04-28T11:27:24.941Z</time>
</trkpt>
<trkpt lat="50.49557800" lon="8.73747600">
<ele>212.847</ele>
<time>2026-04-28T11:27:26.513Z</time>
</trkpt>
<trkpt lat="50.49541800" lon="8.73735300">
<ele>213.215</ele>
<time>2026-04-28T11:27:31.203Z</time>
</trkpt>
<trkpt lat="50.49526800" lon="8.73733300">
<ele>213.527</ele>
<time>2026-04-28T11:27:34.887Z</time>
</trkpt>
<trkpt lat="50.49523000" lon="8.73738400">
<ele>213.630</ele>
<time>2026-04-28T11:27:36.101Z</time>
</trkpt>
<trkpt lat="50.49522200" lon="8.73759800">
<ele>213.912</ele>
<time>2026-04-28T11:27:39.090Z</time>
</trkpt>
<trkpt lat="50.49544000" lon="8.73823000">
<ele>214.859</ele>
<time>2026-04-28T11:27:46.912Z</time>
</trkpt>
<trkpt lat="50.49574500" lon="8.73912500">
<ele>213.301</ele>
<time>2026-04-28T11:27:54.290Z</time>
</trkpt>
<trkpt lat="50.49621700" lon="8.74095100">
<ele>209.314</ele>
<time>2026-04-28T11:28:06.461Z</time>
</trkpt>
<trkpt lat="50.49627500" lon="8.74108400">
<ele>208.835</ele>
<time>2026-04-28T11:28:07.423Z</time>
</trkpt>
<trkpt lat="50.49682300" lon="8.74317800">
<ele>202.113</ele>
<time>2026-04-28T11:28:21.017Z</time>
</trkpt>
<trkpt lat="50.49726400" lon="8.74443100">
<ele>198.874</ele>
<time>2026-04-28T11:28:29.913Z</time>
</trkpt>
<trkpt lat="50.49749400" lon="8.74490700">
<ele>197.680</ele>
<time>2026-04-28T11:28:33.788Z</time>
</trkpt>
<trkpt lat="50.49830400" lon="8.74627000">
<ele>194.279</ele>
<time>2026-04-28T11:28:46.548Z</time>
</trkpt>
<trkpt lat="50.49848300" lon="8.74667500">
<ele>193.531</ele>
<time>2026-04-28T11:28:50.021Z</time>
</trkpt>
<trkpt lat="50.49870100" lon="8.74734400">
<ele>192.391</ele>
<time>2026-04-28T11:28:55.181Z</time>
</trkpt>
<trkpt lat="50.49897700" lon="8.74841300">
<ele>190.603</ele>
<time>2026-04-28T11:29:02.802Z</time>
</trkpt>
<trkpt lat="50.49907800" lon="8.74875700">
<ele>189.969</ele>
<time>2026-04-28T11:29:05.267Z</time>
</trkpt>
<trkpt lat="50.49941900" lon="8.74941200">
<ele>188.554</ele>
<time>2026-04-28T11:29:10.799Z</time>
</trkpt>
<trkpt lat="50.49960900" lon="8.74986800">
<ele>187.642</ele>
<time>2026-04-28T11:29:14.382Z</time>
</trkpt>
<trkpt lat="50.49978000" lon="8.75045500">
<ele>186.563</ele>
<time>2026-04-28T11:29:18.739Z</time>
</trkpt>
<trkpt lat="50.50014800" lon="8.75177300">
<ele>185.186</ele>
<time>2026-04-28T11:29:29.142Z</time>
</trkpt>
<trkpt lat="50.50019600" lon="8.75214700">
<ele>184.857</ele>
<time>2026-04-28T11:29:32Z</time>
</trkpt>
<trkpt lat="50.50021700" lon="8.75553100">
<ele>182.767</ele>
<time>2026-04-28T11:29:58.640Z</time>
</trkpt>
<trkpt lat="50.50019900" lon="8.75557300">
<ele>182.742</ele>
<time>2026-04-28T11:29:59.049Z</time>
</trkpt>
<trkpt lat="50.50020500" lon="8.75602200">
<ele>182.523</ele>
<time>2026-04-28T11:30:02.605Z</time>
</trkpt>
<trkpt lat="50.50017300" lon="8.75610900">
<ele>182.474</ele>
<time>2026-04-28T11:30:03.515Z</time>
</trkpt>
<trkpt lat="50.50018900" lon="8.75643400">
<ele>182.455</ele>
<time>2026-04-28T11:30:06.344Z</time>
</trkpt>
<trkpt lat="50.50020400" lon="8.75672400">
<ele>182.444</ele>
<time>2026-04-28T11:30:09.145Z</time>
</trkpt>
<trkpt lat="50.50024700" lon="8.75711100">
<ele>182.428</ele>
<time>2026-04-28T11:30:13.394Z</time>
</trkpt>
<trkpt lat="50.50027900" lon="8.75725700">
<ele>182.422</ele>
<time>2026-04-28T11:30:15.075Z</time>
</trkpt>
<trkpt lat="50.50034600" lon="8.75737500">
<ele>182.416</ele>
<time>2026-04-28T11:30:16.650Z</time>
</trkpt>
<trkpt lat="50.49991600" lon="8.75852600">
<ele>182.363</ele>
<time>2026-04-28T11:30:30.063Z</time>
</trkpt>
<trkpt lat="50.49988700" lon="8.75865200">
<ele>182.357</ele>
<time>2026-04-28T11:30:31.353Z</time>
</trkpt>
<trkpt lat="50.49985200" lon="8.75886900">
<ele>182.206</ele>
<time>2026-04-28T11:30:33.558Z</time>
</trkpt>
<trkpt lat="50.49963600" lon="8.76066800">
<ele>180.631</ele>
<time>2026-04-28T11:30:47.106Z</time>
</trkpt>
<trkpt lat="50.49945200" lon="8.76229400">
<ele>179.546</ele>
<time>2026-04-28T11:30:58.479Z</time>
</trkpt>
<trkpt lat="50.49936600" lon="8.76293700">
<ele>179.248</ele>
<time>2026-04-28T11:31:03.612Z</time>
</trkpt>
<trkpt lat="50.49928000" lon="8.76316300">
<ele>179.129</ele>
<time>2026-04-28T11:31:06.016Z</time>
</trkpt>
<trkpt lat="50.49876200" lon="8.76388800">
<ele>178.634</ele>
<time>2026-04-28T11:31:17.831Z</time>
</trkpt>
<trkpt lat="50.49847500" lon="8.76409800">
<ele>178.417</ele>
<time>2026-04-28T11:31:23.229Z</time>
</trkpt>
<trkpt lat="50.49777700" lon="8.76431300">
<ele>177.928</ele>
<time>2026-04-28T11:31:33.100Z</time>
</trkpt>
<trkpt lat="50.49747600" lon="8.76445600">
<ele>177.712</ele>
<time>2026-04-28T11:31:36.872Z</time>
</trkpt>
<trkpt lat="50.49547000" lon="8.76568100">
<ele>174.225</ele>
<time>2026-04-28T11:32:00.648Z</time>
</trkpt>
<trkpt lat="50.49473200" lon="8.76645100">
<ele>172.884</ele>
<time>2026-04-28T11:32:10.580Z</time>
</trkpt>
<trkpt lat="50.49420800" lon="8.76701200">
<ele>171.951</ele>
<time>2026-04-28T11:32:17.872Z</time>
</trkpt>
<trkpt lat="50.49292600" lon="8.76836800">
<ele>170.435</ele>
<time>2026-04-28T11:32:37.044Z</time>
</trkpt>
<trkpt lat="50.49254700" lon="8.76867800">
<ele>170.083</ele>
<time>2026-04-28T11:32:42.580Z</time>
</trkpt>
<trkpt lat="50.49187100" lon="8.76909300">
<ele>169.575</ele>
<time>2026-04-28T11:32:52.117Z</time>
</trkpt>
<trkpt lat="50.49167000" lon="8.76927300">
<ele>169.424</ele>
<time>2026-04-28T11:32:55.151Z</time>
</trkpt>
<trkpt lat="50.48980600" lon="8.77185800">
<ele>168.076</ele>
<time>2026-04-28T11:33:26.838Z</time>
</trkpt>
<trkpt lat="50.48971800" lon="8.77196000">
<ele>168.026</ele>
<time>2026-04-28T11:33:28.374Z</time>
</trkpt>
<trkpt lat="50.48954500" lon="8.77208000">
<ele>167.938</ele>
<time>2026-04-28T11:33:31.157Z</time>
</trkpt>
<trkpt lat="50.48937800" lon="8.77218700">
<ele>168.102</ele>
<time>2026-04-28T11:33:34.030Z</time>
</trkpt>
<trkpt lat="50.48921200" lon="8.77159800">
<ele>168.736</ele>
<time>2026-04-28T11:33:41.266Z</time>
</trkpt>
<trkpt lat="50.48914600" lon="8.77136500">
<ele>168.986</ele>
<time>2026-04-28T11:33:44.392Z</time>
</trkpt>
<trkpt lat="50.48860700" lon="8.76953100">
<ele>171.153</ele>
<time>2026-04-28T11:34:14.579Z</time>
</trkpt>
<trkpt lat="50.48843000" lon="8.76905000">
<ele>172.049</ele>
<time>2026-04-28T11:34:23.865Z</time>
</trkpt>
<trkpt lat="50.48800800" lon="8.76815800">
<ele>173.841</ele>
<time>2026-04-28T11:34:41.964Z</time>
</trkpt>
<trkpt lat="50.48748400" lon="8.76735600">
<ele>175.595</ele>
<time>2026-04-28T11:35:00.104Z</time>
</trkpt>
<trkpt lat="50.48716200" lon="8.76696800">
<ele>176.393</ele>
<time>2026-04-28T11:35:09.991Z</time>
</trkpt>
<trkpt lat="50.48683600" lon="8.76665100">
<ele>177.146</ele>
<time>2026-04-28T11:35:19.144Z</time>
</trkpt>
<trkpt lat="50.48643300" lon="8.76631700">
<ele>178.042</ele>
<time>2026-04-28T11:35:29.183Z</time>
</trkpt>
<trkpt lat="50.48602700" lon="8.76603900">
<ele>178.824</ele>
<time>2026-04-28T11:35:38.279Z</time>
</trkpt>
<trkpt lat="50.48544600" lon="8.76573400">
<ele>179.193</ele>
<time>2026-04-28T11:35:49.880Z</time>
</trkpt>
<trkpt lat="50.48498300" lon="8.76555900">
<ele>179.479</ele>
<time>2026-04-28T11:35:57.632Z</time>
</trkpt>
<trkpt lat="50.48490200" lon="8.76542600">
<ele>179.550</ele>
<time>2026-04-28T11:35:59.385Z</time>
</trkpt>
<trkpt lat="50.48484800" lon="8.76526000">
<ele>179.621</ele>
<time>2026-04-28T11:36:01.164Z</time>
</trkpt>
<trkpt lat="50.48478300" lon="8.76483400">
<ele>179.789</ele>
<time>2026-04-28T11:36:05.367Z</time>
</trkpt>
<trkpt lat="50.48471600" lon="8.76458500">
<ele>179.885</ele>
<time>2026-04-28T11:36:08.001Z</time>
</trkpt>
<trkpt lat="50.48453600" lon="8.76429500">
<ele>179.996</ele>
<time>2026-04-28T11:36:11.882Z</time>
</trkpt>
<trkpt lat="50.48332200" lon="8.76306000">
<ele>180.616</ele>
<time>2026-04-28T11:36:35.684Z</time>
</trkpt>
<trkpt lat="50.48324500" lon="8.76299800">
<ele>180.669</ele>
<time>2026-04-28T11:36:37.744Z</time>
</trkpt>
<trkpt lat="50.48296000" lon="8.76271000">
<ele>180.969</ele>
<time>2026-04-28T11:36:46.197Z</time>
</trkpt>
<trkpt lat="50.48284900" lon="8.76261100">
<ele>181.082</ele>
<time>2026-04-28T11:36:48.670Z</time>
</trkpt>
<trkpt lat="50.48228400" lon="8.76196900">
<ele>181.699</ele>
<time>2026-04-28T11:37:02.471Z</time>
</trkpt>
<trkpt lat="50.48208100" lon="8.76163600">
<ele>181.959</ele>
<time>2026-04-28T11:37:08.036Z</time>
</trkpt>
<trkpt lat="50.48173600" lon="8.76083700">
<ele>182.118</ele>
<time>2026-04-28T11:37:18.232Z</time>
</trkpt>
<trkpt lat="50.48134800" lon="8.76005400">
<ele>181.882</ele>
<time>2026-04-28T11:37:30.573Z</time>
</trkpt>
<trkpt lat="50.48085800" lon="8.75904200">
<ele>181.580</ele>
<time>2026-04-28T11:37:45.757Z</time>
</trkpt>
<trkpt lat="50.48059900" lon="8.75833500">
<ele>179.995</ele>
<time>2026-04-28T11:37:53.776Z</time>
</trkpt>
<trkpt lat="50.48053600" lon="8.75832600">
<ele>179.783</ele>
<time>2026-04-28T11:37:54.717Z</time>
</trkpt>
<trkpt lat="50.48028500" lon="8.75828700">
<ele>178.938</ele>
<time>2026-04-28T11:37:58.467Z</time>
</trkpt>
<trkpt lat="50.47999100" lon="8.75829500">
<ele>177.953</ele>
<time>2026-04-28T11:38:02.760Z</time>
</trkpt>
<trkpt lat="50.47977000" lon="8.75837700">
<ele>177.192</ele>
<time>2026-04-28T11:38:05.948Z</time>
</trkpt>
<trkpt lat="50.47949600" lon="8.75854300">
<ele>176.208</ele>
<time>2026-04-28T11:38:09.946Z</time>
</trkpt>
<trkpt lat="50.47914300" lon="8.75875700">
<ele>174.756</ele>
<time>2026-04-28T11:38:14.997Z</time>
</trkpt>
<trkpt lat="50.47906400" lon="8.75880300">
<ele>174.386</ele>
<time>2026-04-28T11:38:16.113Z</time>
</trkpt>
<trkpt lat="50.47890200" lon="8.75890300">
<ele>173.622</ele>
<time>2026-04-28T11:38:17.734Z</time>
</trkpt>
<trkpt lat="50.47887900" lon="8.75891700">
<ele>173.514</ele>
<time>2026-04-28T11:38:17.967Z</time>
</trkpt>
<trkpt lat="50.47876300" lon="8.75892500">
<ele>173.005</ele>
<time>2026-04-28T11:38:19.059Z</time>
</trkpt>
<trkpt lat="50.47869500" lon="8.75897100">
<ele>172.680</ele>
<time>2026-04-28T11:38:19.760Z</time>
</trkpt>
<trkpt lat="50.47841600" lon="8.75912000">
<ele>171.386</ele>
<time>2026-04-28T11:38:22.577Z</time>
</trkpt>
<trkpt lat="50.47821100" lon="8.75918000">
<ele>170.471</ele>
<time>2026-04-28T11:38:24.577Z</time>
</trkpt>
<trkpt lat="50.47790500" lon="8.75916100">
<ele>169.127</ele>
<time>2026-04-28T11:38:27.548Z</time>
</trkpt>
<trkpt lat="50.47740300" lon="8.75913400">
<ele>167.330</ele>
<time>2026-04-28T11:38:32.547Z</time>
</trkpt>
<trkpt lat="50.47661800" lon="8.75913000">
<ele>165.848</ele>
<time>2026-04-28T11:38:40.928Z</time>
</trkpt>
<trkpt lat="50.47620200" lon="8.75908400">
<ele>165.060</ele>
<time>2026-04-28T11:38:45.754Z</time>
</trkpt>
<trkpt lat="50.47616200" lon="8.75908200">
<ele>164.985</ele>
<time>2026-04-28T11:38:46.454Z</time>
</trkpt>
<trkpt lat="50.47597500" lon="8.75908800">
<ele>164.631</ele>
<time>2026-04-28T11:38:49.704Z</time>
</trkpt>
<trkpt lat="50.47585800" lon="8.75914800">
<ele>164.399</ele>
<time>2026-04-28T11:38:51.897Z</time>
</trkpt>
<trkpt lat="50.47561900" lon="8.75907100">
<ele>164.249</ele>
<time>2026-04-28T11:38:55.145Z</time>
</trkpt>
<trkpt lat="50.47481200" lon="8.75899100">
<ele>164.288</ele>
<time>2026-04-28T11:39:07.494Z</time>
</trkpt>
<trkpt lat="50.47473200" lon="8.75889800">
<ele>164.292</ele>
<time>2026-04-28T11:39:09.157Z</time>
</trkpt>
<trkpt lat="50.47444500" lon="8.75882400">
<ele>164.306</ele>
<time>2026-04-28T11:39:14.186Z</time>
</trkpt>
<trkpt lat="50.47422300" lon="8.75881000">
<ele>164.316</ele>
<time>2026-04-28T11:39:18.017Z</time>
</trkpt>
<trkpt lat="50.47250200" lon="8.75870400">
<ele>164.008</ele>
<time>2026-04-28T11:39:43.519Z</time>
</trkpt>
<trkpt lat="50.47180300" lon="8.75871200">
<ele>163.420</ele>
<time>2026-04-28T11:39:51.932Z</time>
</trkpt>
<trkpt lat="50.47170600" lon="8.75865200">
<ele>163.285</ele>
<time>2026-04-28T11:39:53.173Z</time>
</trkpt>
<trkpt lat="50.47153300" lon="8.75860900">
<ele>163.058</ele>
<time>2026-04-28T11:39:55.234Z</time>
</trkpt>
<trkpt lat="50.47099800" lon="8.75859000">
<ele>162.365</ele>
<time>2026-04-28T11:40:01.322Z</time>
</trkpt>
<trkpt lat="50.47090900" lon="8.75855400">
<ele>162.246</ele>
<time>2026-04-28T11:40:02.344Z</time>
</trkpt>
<trkpt lat="50.47085800" lon="8.75848700">
<ele>162.160</ele>
<time>2026-04-28T11:40:03.086Z</time>
</trkpt>
<trkpt lat="50.47078700" lon="8.75840100">
<ele>162.044</ele>
<time>2026-04-28T11:40:04.517Z</time>
</trkpt>
<trkpt lat="50.47052300" lon="8.75852500">
<ele>161.687</ele>
<time>2026-04-28T11:40:08.915Z</time>
</trkpt>
<trkpt lat="50.46952500" lon="8.75845000">
<ele>161.147</ele>
<time>2026-04-28T11:40:27.119Z</time>
</trkpt>
<trkpt lat="50.46919600" lon="8.75842400">
<ele>160.983</ele>
<time>2026-04-28T11:40:33.647Z</time>
</trkpt>
<trkpt lat="50.46863600" lon="8.75826600">
<ele>160.681</ele>
<time>2026-04-28T11:40:45.158Z</time>
</trkpt>
<trkpt lat="50.46819800" lon="8.75802800">
<ele>160.245</ele>
<time>2026-04-28T11:40:54.369Z</time>
</trkpt>
<trkpt lat="50.46765700" lon="8.75764600">
<ele>159.687</ele>
<time>2026-04-28T11:41:04.537Z</time>
</trkpt>
<trkpt lat="50.46720700" lon="8.75713100">
<ele>159.163</ele>
<time>2026-04-28T11:41:13.443Z</time>
</trkpt>
<trkpt lat="50.46671500" lon="8.75639000">
<ele>158.883</ele>
<time>2026-04-28T11:41:24.986Z</time>
</trkpt>
<trkpt lat="50.46665600" lon="8.75628000">
<ele>158.858</ele>
<time>2026-04-28T11:41:26.705Z</time>
</trkpt>
<trkpt lat="50.46613600" lon="8.75529200">
<ele>158.636</ele>
<time>2026-04-28T11:41:43.684Z</time>
</trkpt>
<trkpt lat="50.46589800" lon="8.75484400">
<ele>158.547</ele>
<time>2026-04-28T11:41:52.348Z</time>
</trkpt>
<trkpt lat="50.46579100" lon="8.75487400">
<ele>158.580</ele>
<time>2026-04-28T11:41:54.869Z</time>
</trkpt>
<trkpt lat="50.46502600" lon="8.75344700">
<ele>158.940</ele>
<time>2026-04-28T11:42:13.384Z</time>
</trkpt>
<trkpt lat="50.46475500" lon="8.75292800">
<ele>159.070</ele>
<time>2026-04-28T11:42:19.710Z</time>
</trkpt>
<trkpt lat="50.46459200" lon="8.75253900">
<ele>159.322</ele>
<time>2026-04-28T11:42:24.621Z</time>
</trkpt>
<trkpt lat="50.46415100" lon="8.75148700">
<ele>160.102</ele>
<time>2026-04-28T11:42:40.225Z</time>
</trkpt>
<trkpt lat="50.46384800" lon="8.75069800">
<ele>160.673</ele>
<time>2026-04-28T11:42:52.346Z</time>
</trkpt>
<trkpt lat="50.46353300" lon="8.74987800">
<ele>160.459</ele>
<time>2026-04-28T11:43:03.984Z</time>
</trkpt>
<trkpt lat="50.46315000" lon="8.74895100">
<ele>159.858</ele>
<time>2026-04-28T11:43:12.650Z</time>
</trkpt>
<trkpt lat="50.46305100" lon="8.74877400">
<ele>159.730</ele>
<time>2026-04-28T11:43:14.307Z</time>
</trkpt>
<trkpt lat="50.46286500" lon="8.74853900">
<ele>159.526</ele>
<time>2026-04-28T11:43:16.892Z</time>
</trkpt>
<trkpt lat="50.46268400" lon="8.74837800">
<ele>159.348</ele>
<time>2026-04-28T11:43:19.125Z</time>
</trkpt>
<trkpt lat="50.46255100" lon="8.74826000">
<ele>159.085</ele>
<time>2026-04-28T11:43:20.753Z</time>
</trkpt>
<trkpt lat="50.46250600" lon="8.74835400">
<ele>158.918</ele>
<time>2026-04-28T11:43:21.548Z</time>
</trkpt>
<trkpt lat="50.46182700" lon="8.74781400">
<ele>157.218</ele>
<time>2026-04-28T11:43:29.542Z</time>
</trkpt>
<trkpt lat="50.46138200" lon="8.74736300">
<ele>156.035</ele>
<time>2026-04-28T11:43:35.265Z</time>
</trkpt>
<trkpt lat="50.46108700" lon="8.74684900">
<ele>155.149</ele>
<time>2026-04-28T11:43:40.158Z</time>
</trkpt>
<trkpt lat="50.46088800" lon="8.74633900">
<ele>154.659</ele>
<time>2026-04-28T11:43:44.507Z</time>
</trkpt>
<trkpt lat="50.46061800" lon="8.74548500">
<ele>153.877</ele>
<time>2026-04-28T11:43:51.547Z</time>
</trkpt>
<trkpt lat="50.46022300" lon="8.74407900">
<ele>152.895</ele>
<time>2026-04-28T11:44:03.501Z</time>
</trkpt>
<trkpt lat="50.45970800" lon="8.74219700">
<ele>152.549</ele>
<time>2026-04-28T11:44:21.851Z</time>
</trkpt>
<trkpt lat="50.45975200" lon="8.74214500">
<ele>152.534</ele>
<time>2026-04-28T11:44:22.767Z</time>
</trkpt>
<trkpt lat="50.45950600" lon="8.74124700">
<ele>152.722</ele>
<time>2026-04-28T11:44:32.992Z</time>
</trkpt>
<trkpt lat="50.45879100" lon="8.73865900">
<ele>153.604</ele>
<time>2026-04-28T11:45:04.207Z</time>
</trkpt>
<trkpt lat="50.45823100" lon="8.73663100">
<ele>154.120</ele>
<time>2026-04-28T11:45:27.566Z</time>
</trkpt>
<trkpt lat="50.45810600" lon="8.73614000">
<ele>153.823</ele>
<time>2026-04-28T11:45:32.662Z</time>
</trkpt>
<trkpt lat="50.45808200" lon="8.73603300">
<ele>153.759</ele>
<time>2026-04-28T11:45:33.632Z</time>
</trkpt>
<trkpt lat="50.45814200" lon="8.73594500">
<ele>153.686</ele>
<time>2026-04-28T11:45:34.717Z</time>
</trkpt>
<trkpt lat="50.45814800" lon="8.73575600">
<ele>153.580</ele>
<time>2026-04-28T11:45:36.259Z</time>
</trkpt>
<trkpt lat="50.45805300" lon="8.73563100">
<ele>153.470</ele>
<time>2026-04-28T11:45:37.760Z</time>
</trkpt>
<trkpt lat="50.45796900" lon="8.73564300">
<ele>153.396</ele>
<time>2026-04-28T11:45:38.755Z</time>
</trkpt>
<trkpt lat="50.45793700" lon="8.73553400">
<ele>153.328</ele>
<time>2026-04-28T11:45:39.667Z</time>
</trkpt>
<trkpt lat="50.45780000" lon="8.73507900">
<ele>153.045</ele>
<time>2026-04-28T11:45:43.349Z</time>
</trkpt>
<trkpt lat="50.45754300" lon="8.73415700">
<ele>152.576</ele>
<time>2026-04-28T11:45:50.619Z</time>
</trkpt>
<trkpt lat="50.45745500" lon="8.73384100">
<ele>152.563</ele>
<time>2026-04-28T11:45:53.180Z</time>
</trkpt>
<trkpt lat="50.45727700" lon="8.73319900">
<ele>152.536</ele>
<time>2026-04-28T11:45:58.494Z</time>
</trkpt>
<trkpt lat="50.45702200" lon="8.73227300">
<ele>152.498</ele>
<time>2026-04-28T11:46:08.617Z</time>
</trkpt>
<trkpt lat="50.45697400" lon="8.73209100">
<ele>152.490</ele>
<time>2026-04-28T11:46:11.155Z</time>
</trkpt>
<trkpt lat="50.45676300" lon="8.73132300">
<ele>152.840</ele>
<time>2026-04-28T11:46:23.233Z</time>
</trkpt>
<trkpt lat="50.45661100" lon="8.73077200">
<ele>153.328</ele>
<time>2026-04-28T11:46:32.250Z</time>
</trkpt>
<trkpt lat="50.45654700" lon="8.73053900">
<ele>153.534</ele>
<time>2026-04-28T11:46:35.901Z</time>
</trkpt>
<trkpt lat="50.45625900" lon="8.72944100">
<ele>154.499</ele>
<time>2026-04-28T11:46:51.192Z</time>
</trkpt>
<trkpt lat="50.45590800" lon="8.72821600">
<ele>154.230</ele>
<time>2026-04-28T11:47:03.411Z</time>
</trkpt>
<trkpt lat="50.45582400" lon="8.72791400">
<ele>154.053</ele>
<time>2026-04-28T11:47:05.942Z</time>
</trkpt>
<trkpt lat="50.45539100" lon="8.72634100">
<ele>153.002</ele>
<time>2026-04-28T11:47:18.538Z</time>
</trkpt>
<trkpt lat="50.45535100" lon="8.72638300">
<ele>152.917</ele>
<time>2026-04-28T11:47:19.321Z</time>
</trkpt>
<trkpt lat="50.45520200" lon="8.72587300">
<ele>152.290</ele>
<time>2026-04-28T11:47:23.318Z</time>
</trkpt>
<trkpt lat="50.45504500" lon="8.72533600">
<ele>151.630</ele>
<time>2026-04-28T11:47:27.466Z</time>
</trkpt>
<trkpt lat="50.45453200" lon="8.72344100">
<ele>149.907</ele>
<time>2026-04-28T11:47:42.086Z</time>
</trkpt>
<trkpt lat="50.45264900" lon="8.71663400">
<ele>148.245</ele>
<time>2026-04-28T11:48:48.486Z</time>
</trkpt>
<trkpt lat="50.45206000" lon="8.71441300">
<ele>148.408</ele>
<time>2026-04-28T11:49:10.706Z</time>
</trkpt>
<trkpt lat="50.45141500" lon="8.71218400">
<ele>148.686</ele>
<time>2026-04-28T11:49:38.482Z</time>
</trkpt>
<trkpt lat="50.45105500" lon="8.71094000">
<ele>148.767</ele>
<time>2026-04-28T11:49:50.214Z</time>
</trkpt>
<trkpt lat="50.45068500" lon="8.71005600">
<ele>148.468</ele>
<time>2026-04-28T11:49:58.448Z</time>
</trkpt>
<trkpt lat="50.45020800" lon="8.70930600">
<ele>148.169</ele>
<time>2026-04-28T11:50:07.566Z</time>
</trkpt>
<trkpt lat="50.44826600" lon="8.70712600">
<ele>148.141</ele>
<time>2026-04-28T11:50:44.647Z</time>
</trkpt>
<trkpt lat="50.44632900" lon="8.70501800">
<ele>147.665</ele>
<time>2026-04-28T11:51:15.409Z</time>
</trkpt>
<trkpt lat="50.44578300" lon="8.70434200">
<ele>147.808</ele>
<time>2026-04-28T11:51:26.905Z</time>
</trkpt>
<trkpt lat="50.44323300" lon="8.70055700">
<ele>152.378</ele>
<time>2026-04-28T11:52:41.342Z</time>
</trkpt>
<trkpt lat="50.44292900" lon="8.70091300">
<ele>152.810</ele>
<time>2026-04-28T11:52:49.922Z</time>
</trkpt>
<trkpt lat="50.44278500" lon="8.70108200">
<ele>152.622</ele>
<time>2026-04-28T11:52:53.688Z</time>
</trkpt>
<trkpt lat="50.44262600" lon="8.70131900">
<ele>152.392</ele>
<time>2026-04-28T11:52:57.948Z</time>
</trkpt>
<trkpt lat="50.44225400" lon="8.70205600">
<ele>151.765</ele>
<time>2026-04-28T11:53:08.301Z</time>
</trkpt>
<trkpt lat="50.44219100" lon="8.70218300">
<ele>151.657</ele>
<time>2026-04-28T11:53:09.951Z</time>
</trkpt>
<trkpt lat="50.44179400" lon="8.70323200">
<ele>150.889</ele>
<time>2026-04-28T11:53:22.002Z</time>
</trkpt>
<trkpt lat="50.44163200" lon="8.70381200">
<ele>150.661</ele>
<time>2026-04-28T11:53:28.596Z</time>
</trkpt>
<trkpt lat="50.44159300" lon="8.70402200">
<ele>150.583</ele>
<time>2026-04-28T11:53:31.015Z</time>
</trkpt>
<trkpt lat="50.44151700" lon="8.70443600">
<ele>150.428</ele>
<time>2026-04-28T11:53:35.971Z</time>
</trkpt>
<trkpt lat="50.44145500" lon="8.70478000">
<ele>150.299</ele>
<time>2026-04-28T11:53:40.319Z</time>
</trkpt>
<trkpt lat="50.44144600" lon="8.70514400">
<ele>150.169</ele>
<time>2026-04-28T11:53:44.869Z</time>
</trkpt>
<trkpt lat="50.44140400" lon="8.70530200">
<ele>150.107</ele>
<time>2026-04-28T11:53:47.122Z</time>
</trkpt>
<trkpt lat="50.44129300" lon="8.70547400">
<ele>150.019</ele>
<time>2026-04-28T11:53:50.446Z</time>
</trkpt>
<trkpt lat="50.44094100" lon="8.70579800">
<ele>150.332</ele>
<time>2026-04-28T11:53:59.859Z</time>
</trkpt>
<trkpt lat="50.44085800" lon="8.70586300">
<ele>150.485</ele>
<time>2026-04-28T11:54:02.255Z</time>
</trkpt>
<trkpt lat="50.44054000" lon="8.70615600">
<ele>151.093</ele>
<time>2026-04-28T11:54:12.442Z</time>
</trkpt>
<trkpt lat="50.44031700" lon="8.70631500">
<ele>151.497</ele>
<time>2026-04-28T11:54:19.453Z</time>
</trkpt>
<trkpt lat="50.44013600" lon="8.70641700">
<ele>151.814</ele>
<time>2026-04-28T11:54:24.892Z</time>
</trkpt>
<trkpt lat="50.43999400" lon="8.70641300">
<ele>152.048</ele>
<time>2026-04-28T11:54:29.040Z</time>
</trkpt>
<trkpt lat="50.43992900" lon="8.70632600">
<ele>152.189</ele>
<time>2026-04-28T11:54:31.551Z</time>
</trkpt>
<trkpt lat="50.43975700" lon="8.70580500">
<ele>152.805</ele>
<time>2026-04-28T11:54:42.135Z</time>
</trkpt>
<trkpt lat="50.43923500" lon="8.70625000">
<ele>152.699</ele>
<time>2026-04-28T11:54:58.641Z</time>
</trkpt>
<trkpt lat="50.43899100" lon="8.70664000">
<ele>152.574</ele>
<time>2026-04-28T11:55:06.570Z</time>
</trkpt>
<trkpt lat="50.43885700" lon="8.70683500">
<ele>152.509</ele>
<time>2026-04-28T11:55:09.827Z</time>
</trkpt>
<trkpt lat="50.43848500" lon="8.70732900">
<ele>152.334</ele>
<time>2026-04-28T11:55:17.563Z</time>
</trkpt>
<trkpt lat="50.43811700" lon="8.70776600">
<ele>151.787</ele>
<time>2026-04-28T11:55:24.290Z</time>
</trkpt>
<trkpt lat="50.43811800" lon="8.70785700">
<ele>151.666</ele>
<time>2026-04-28T11:55:24.875Z</time>
</trkpt>
<trkpt lat="50.43807700" lon="8.70794600">
<ele>151.521</ele>
<time>2026-04-28T11:55:25.586Z</time>
</trkpt>
<trkpt lat="50.43741500" lon="8.70863300">
<ele>149.870</ele>
<time>2026-04-28T11:55:33.812Z</time>
</trkpt>
<trkpt lat="50.43586200" lon="8.71024200">
<ele>147.808</ele>
<time>2026-04-28T11:55:57.197Z</time>
</trkpt>
<trkpt lat="50.43519500" lon="8.71126700">
<ele>147.509</ele>
<time>2026-04-28T11:56:10.478Z</time>
</trkpt>
<trkpt lat="50.43504700" lon="8.71164000">
<ele>147.546</ele>
<time>2026-04-28T11:56:14.581Z</time>
</trkpt>
<trkpt lat="50.43496300" lon="8.71190700">
<ele>147.571</ele>
<time>2026-04-28T11:56:17.433Z</time>
</trkpt>
<trkpt lat="50.43479600" lon="8.71243400">
<ele>147.620</ele>
<time>2026-04-28T11:56:23.267Z</time>
</trkpt>
<trkpt lat="50.43473700" lon="8.71280200">
<ele>147.651</ele>
<time>2026-04-28T11:56:27.175Z</time>
</trkpt>
<trkpt lat="50.43468300" lon="8.71320000">
<ele>147.685</ele>
<time>2026-04-28T11:56:31.464Z</time>
</trkpt>
<trkpt lat="50.43453500" lon="8.71538400">
<ele>148.043</ele>
<time>2026-04-28T11:56:54.821Z</time>
</trkpt>
<trkpt lat="50.43450000" lon="8.71576800">
<ele>148.109</ele>
<time>2026-04-28T11:56:58.688Z</time>
</trkpt>
<trkpt lat="50.43438000" lon="8.71638300">
<ele>148.070</ele>
<time>2026-04-28T11:57:04.568Z</time>
</trkpt>
<trkpt lat="50.43422800" lon="8.71696800">
<ele>147.763</ele>
<time>2026-04-28T11:57:09.856Z</time>
</trkpt>
<trkpt lat="50.43366200" lon="8.71913300">
<ele>146.780</ele>
<time>2026-04-28T11:57:27.907Z</time>
</trkpt>
<trkpt lat="50.43358000" lon="8.71935900">
<ele>146.764</ele>
<time>2026-04-28T11:57:29.992Z</time>
</trkpt>
<trkpt lat="50.43351200" lon="8.71971600">
<ele>146.740</ele>
<time>2026-04-28T11:57:33.086Z</time>
</trkpt>
<trkpt lat="50.43318800" lon="8.72124000">
<ele>146.636</ele>
<time>2026-04-28T11:57:48.855Z</time>
</trkpt>
<trkpt lat="50.43279300" lon="8.72334800">
<ele>147.398</ele>
<time>2026-04-28T11:58:14.398Z</time>
</trkpt>
<trkpt lat="50.43262800" lon="8.72405500">
<ele>147.692</ele>
<time>2026-04-28T11:58:22.942Z</time>
</trkpt>
<trkpt lat="50.43236400" lon="8.72477100">
<ele>147.278</ele>
<time>2026-04-28T11:58:30.798Z</time>
</trkpt>
<trkpt lat="50.43214300" lon="8.72521800">
<ele>146.938</ele>
<time>2026-04-28T11:58:35.305Z</time>
</trkpt>
<trkpt lat="50.43189700" lon="8.72563400">
<ele>146.597</ele>
<time>2026-04-28T11:58:39.516Z</time>
</trkpt>
<trkpt lat="50.43131900" lon="8.72628500">
<ele>145.911</ele>
<time>2026-04-28T11:58:47.480Z</time>
</trkpt>
<trkpt lat="50.43090700" lon="8.72663300">
<ele>145.406</ele>
<time>2026-04-28T11:58:52.743Z</time>
</trkpt>
<trkpt lat="50.43027300" lon="8.72709300">
<ele>144.652</ele>
<time>2026-04-28T11:59:01.251Z</time>
</trkpt>
<trkpt lat="50.43024400" lon="8.72715800">
<ele>144.597</ele>
<time>2026-04-28T11:59:01.925Z</time>
</trkpt>
<trkpt lat="50.43024200" lon="8.72723600">
<ele>144.543</ele>
<time>2026-04-28T11:59:02.547Z</time>
</trkpt>
<trkpt lat="50.43018500" lon="8.72727900">
<ele>144.475</ele>
<time>2026-04-28T11:59:03.388Z</time>
</trkpt>
<trkpt lat="50.43010700" lon="8.72703000">
<ele>144.284</ele>
<time>2026-04-28T11:59:22.716Z</time>
</trkpt>
<trkpt lat="50.42982800" lon="8.72722700">
<ele>144.039</ele>
<time>2026-04-28T11:59:26.886Z</time>
</trkpt>
<trkpt lat="50.42888100" lon="8.72787400">
<ele>143.649</ele>
<time>2026-04-28T11:59:40.852Z</time>
</trkpt>
<trkpt lat="50.42770700" lon="8.72867700">
<ele>143.302</ele>
<time>2026-04-28T11:59:58.481Z</time>
</trkpt>
<trkpt lat="50.42761200" lon="8.72875600">
<ele>143.284</ele>
<time>2026-04-28T11:59:59.982Z</time>
</trkpt>
<trkpt lat="50.42756300" lon="8.72885200">
<ele>143.271</ele>
<time>2026-04-28T12:00:01.127Z</time>
</trkpt>
<trkpt lat="50.42754600" lon="8.72892200">
<ele>143.263</ele>
<time>2026-04-28T12:00:01.769Z</time>
</trkpt>
<trkpt lat="50.42746700" lon="8.72889400">
<ele>143.250</ele>
<time>2026-04-28T12:00:03Z</time>
</trkpt>
<trkpt lat="50.42721700" lon="8.72901400">
<ele>143.207</ele>
<time>2026-04-28T12:00:06.734Z</time>
</trkpt>
<trkpt lat="50.42691300" lon="8.72916000">
<ele>143.155</ele>
<time>2026-04-28T12:00:11.369Z</time>
</trkpt>
<trkpt lat="50.42453800" lon="8.73035600">
<ele>142.762</ele>
<time>2026-04-28T12:00:47.649Z</time>
</trkpt>
<trkpt lat="50.42373800" lon="8.73074700">
<ele>142.345</ele>
<time>2026-04-28T12:00:58.446Z</time>
</trkpt>
<trkpt lat="50.42347800" lon="8.73087500">
<ele>142.209</ele>
<time>2026-04-28T12:01:01.964Z</time>
</trkpt>
<trkpt lat="50.42292800" lon="8.73094300">
<ele>141.826</ele>
<time>2026-04-28T12:01:09.329Z</time>
</trkpt>
<trkpt lat="50.42205600" lon="8.73109500">
<ele>141.065</ele>
<time>2026-04-28T12:01:20.102Z</time>
</trkpt>
<trkpt lat="50.42177200" lon="8.73119600">
<ele>140.813</ele>
<time>2026-04-28T12:01:23.461Z</time>
</trkpt>
<trkpt lat="50.42082500" lon="8.73159200">
<ele>140.757</ele>
<time>2026-04-28T12:01:35.912Z</time>
</trkpt>
<trkpt lat="50.42075100" lon="8.73162300">
<ele>140.785</ele>
<time>2026-04-28T12:01:36.925Z</time>
</trkpt>
<trkpt lat="50.41960700" lon="8.73210000">
<ele>141.413</ele>
<time>2026-04-28T12:01:59.158Z</time>
</trkpt>
<trkpt lat="50.41879300" lon="8.73272900">
<ele>143.413</ele>
<time>2026-04-28T12:02:20.412Z</time>
</trkpt>
<trkpt lat="50.41751300" lon="8.73313000">
<ele>145.703</ele>
<time>2026-04-28T12:02:53.905Z</time>
</trkpt>
<trkpt lat="50.41730800" lon="8.73238800">
<ele>146.252</ele>
<time>2026-04-28T12:03:05.970Z</time>
</trkpt>
<trkpt lat="50.41716600" lon="8.73213400">
<ele>146.481</ele>
<time>2026-04-28T12:03:10.905Z</time>
</trkpt>
<trkpt lat="50.41693500" lon="8.73172100">
<ele>146.855</ele>
<time>2026-04-28T12:03:17.427Z</time>
</trkpt>
<trkpt lat="50.41669000" lon="8.73125900">
<ele>146.801</ele>
<time>2026-04-28T12:03:23.793Z</time>
</trkpt>
<trkpt lat="50.41641200" lon="8.73082000">
<ele>146.218</ele>
<time>2026-04-28T12:03:29.859Z</time>
</trkpt>
<trkpt lat="50.41611900" lon="8.73062000">
<ele>145.747</ele>
<time>2026-04-28T12:03:34.751Z</time>
</trkpt>
<trkpt lat="50.41619200" lon="8.73041400">
<ele>145.525</ele>
<time>2026-04-28T12:03:37.056Z</time>
</trkpt>
<trkpt lat="50.41652000" lon="8.72949400">
<ele>144.533</ele>
<time>2026-04-28T12:03:48.135Z</time>
</trkpt>
<trkpt lat="50.41696300" lon="8.72835900">
<ele>144.523</ele>
<time>2026-04-28T12:04:05.869Z</time>
</trkpt>
<trkpt lat="50.41713000" lon="8.72782500">
<ele>144.577</ele>
<time>2026-04-28T12:04:14.164Z</time>
</trkpt>
<trkpt lat="50.41713900" lon="8.72778400">
<ele>144.581</ele>
<time>2026-04-28T12:04:14.773Z</time>
</trkpt>
<trkpt lat="50.41722700" lon="8.72703500">
<ele>144.650</ele>
<time>2026-04-28T12:04:25.415Z</time>
</trkpt>
<trkpt lat="50.41727800" lon="8.72660400">
<ele>144.730</ele>
<time>2026-04-28T12:04:31.536Z</time>
</trkpt>
<trkpt lat="50.41737700" lon="8.72576500">
<ele>144.964</ele>
<time>2026-04-28T12:04:43.369Z</time>
</trkpt>
<trkpt lat="50.41740000" lon="8.72537100">
<ele>145.072</ele>
<time>2026-04-28T12:04:48.932Z</time>
</trkpt>
<trkpt lat="50.41738600" lon="8.72470100">
<ele>145.255</ele>
<time>2026-04-28T12:04:58.342Z</time>
</trkpt>
<trkpt lat="50.41732500" lon="8.72404100">
<ele>145.438</ele>
<time>2026-04-28T12:05:07.598Z</time>
</trkpt>
<trkpt lat="50.41720300" lon="8.72330500">
<ele>145.755</ele>
<time>2026-04-28T12:05:18.209Z</time>
</trkpt>
<trkpt lat="50.41672800" lon="8.72157600">
<ele>146.545</ele>
<time>2026-04-28T12:05:45.630Z</time>
</trkpt>
<trkpt lat="50.41590400" lon="8.71787600">
<ele>149.093</ele>
<time>2026-04-28T12:06:47.636Z</time>
</trkpt>
<trkpt lat="50.41586100" lon="8.71759600">
<ele>149.241</ele>
<time>2026-04-28T12:06:52.169Z</time>
</trkpt>
<trkpt lat="50.41583200" lon="8.71648100">
<ele>149.815</ele>
<time>2026-04-28T12:07:08.981Z</time>
</trkpt>
<trkpt lat="50.41579400" lon="8.71586200">
<ele>150.113</ele>
<time>2026-04-28T12:07:17.142Z</time>
</trkpt>
<trkpt lat="50.41572900" lon="8.71528500">
<ele>150.293</ele>
<time>2026-04-28T12:07:24.716Z</time>
</trkpt>
<trkpt lat="50.41564600" lon="8.71448400">
<ele>150.542</ele>
<time>2026-04-28T12:07:35.408Z</time>
</trkpt>
<trkpt lat="50.41577200" lon="8.71112300">
<ele>152.208</ele>
<time>2026-04-28T12:08:14.752Z</time>
</trkpt>
<trkpt lat="50.41589700" lon="8.70815200">
<ele>154.529</ele>
<time>2026-04-28T12:08:51.605Z</time>
</trkpt>
<trkpt lat="50.41601200" lon="8.70533900">
<ele>157.712</ele>
<time>2026-04-28T12:09:31.025Z</time>
</trkpt>
<trkpt lat="50.41599000" lon="8.70398400">
<ele>159.514</ele>
<time>2026-04-28T12:09:52.109Z</time>
</trkpt>
<trkpt lat="50.41586900" lon="8.70230000">
<ele>161.939</ele>
<time>2026-04-28T12:10:18.603Z</time>
</trkpt>
<trkpt lat="50.41567400" lon="8.69950500">
<ele>164.841</ele>
<time>2026-04-28T12:10:57.103Z</time>
</trkpt>
<trkpt lat="50.41561200" lon="8.69864200">
<ele>165.496</ele>
<time>2026-04-28T12:11:07.223Z</time>
</trkpt>
<trkpt lat="50.41553900" lon="8.69736500">
<ele>166.219</ele>
<time>2026-04-28T12:11:21.461Z</time>
</trkpt>
<trkpt lat="50.41556300" lon="8.69628000">
<ele>166.831</ele>
<time>2026-04-28T12:11:34.238Z</time>
</trkpt>
<trkpt lat="50.41557300" lon="8.69570700">
<ele>167.135</ele>
<time>2026-04-28T12:11:41.100Z</time>
</trkpt>
<trkpt lat="50.41544400" lon="8.69418100">
<ele>167.953</ele>
<time>2026-04-28T12:11:59.040Z</time>
</trkpt>
<trkpt lat="50.41481100" lon="8.69183400">
<ele>169.202</ele>
<time>2026-04-28T12:12:27.737Z</time>
</trkpt>
<trkpt lat="50.41469700" lon="8.69141900">
<ele>169.416</ele>
<time>2026-04-28T12:12:32.819Z</time>
</trkpt>
<trkpt lat="50.41461300" lon="8.69111600">
<ele>169.573</ele>
<time>2026-04-28T12:12:36.584Z</time>
</trkpt>
<trkpt lat="50.41458100" lon="8.69094300">
<ele>169.659</ele>
<time>2026-04-28T12:12:38.658Z</time>
</trkpt>
<trkpt lat="50.41455400" lon="8.69068300">
<ele>169.667</ele>
<time>2026-04-28T12:12:41.711Z</time>
</trkpt>
<trkpt lat="50.41453100" lon="8.69040900">
<ele>169.667</ele>
<time>2026-04-28T12:12:44.941Z</time>
</trkpt>
<trkpt lat="50.41453800" lon="8.68857500">
<ele>169.667</ele>
<time>2026-04-28T12:13:06.786Z</time>
</trkpt>
<trkpt lat="50.41455100" lon="8.68689800">
<ele>169.667</ele>
<time>2026-04-28T12:13:27.229Z</time>
</trkpt>
<trkpt lat="50.41462300" lon="8.68689100">
<ele>169.667</ele>
<time>2026-04-28T12:13:28.536Z</time>
</trkpt>
<trkpt lat="50.41467000" lon="8.68690200">
<ele>169.667</ele>
<time>2026-04-28T12:13:29.401Z</time>
</trkpt>
</trkseg>
</trk>
<extensions>
</extensions>
</gpx>
